<?xml version="1.0" encoding="UTF-8" standalone="no" ?>
<gpx xmlns="http://www.topografix.com/GPX/1/1" xmlns:xsi="http://www.w3.org/2001/XMLSchema-instance" xsi:schemaLocation="http://www.topografix.com/GPX/1/1 http://www.topografix.com/GPX/1/1/gpx.xsd" version="1.1" creator="VisuGPX - https://www.visugpx.com">
  <metadata>
    <name>2019-02-06 - Les Trois-Fours, Le Hohneck, Gaschney</name>
    <desc><![CDATA[2019-02-06 - Les Trois-Fours, Le Hohneck, Gaschney - Club vosgien Colmar - 24 participants - Guide : André Wirth]]></desc>
  </metadata>
  <trk>
    <name><![CDATA[6 févr. 2019]]></name>
    <cmt><![CDATA[9:34:29 AM]]></cmt>
    <desc><![CDATA[comment ...]]></desc>
    <trkseg>
      <trkpt lat="48.05225" lon="7.01463">
        <ele>1239</ele>
        <time>2019-02-06T08:34:16Z</time>
      </trkpt>
      <trkpt lat="48.05202" lon="7.01463">
        <ele>1257</ele>
        <time>2019-02-06T08:34:48Z</time>
      </trkpt>
      <trkpt lat="48.052" lon="7.01469">
        <ele>1207</ele>
        <time>2019-02-06T08:35:07Z</time>
      </trkpt>
      <trkpt lat="48.05196" lon="7.01475">
        <ele>1210</ele>
        <time>2019-02-06T08:35:13Z</time>
      </trkpt>
      <trkpt lat="48.05196" lon="7.0148">
        <ele>1215</ele>
        <time>2019-02-06T08:35:34Z</time>
      </trkpt>
      <trkpt lat="48.05198" lon="7.01486">
        <ele>1229</ele>
        <time>2019-02-06T08:38:39Z</time>
      </trkpt>
      <trkpt lat="48.05196" lon="7.01493">
        <ele>1229</ele>
        <time>2019-02-06T08:38:51Z</time>
      </trkpt>
      <trkpt lat="48.05191" lon="7.01585">
        <ele>1224</ele>
        <time>2019-02-06T08:39:44Z</time>
      </trkpt>
      <trkpt lat="48.05188" lon="7.01604">
        <ele>1233</ele>
        <time>2019-02-06T08:39:56Z</time>
      </trkpt>
      <trkpt lat="48.05186" lon="7.0161">
        <ele>1232</ele>
        <time>2019-02-06T08:40:16Z</time>
      </trkpt>
      <trkpt lat="48.05188" lon="7.01616">
        <ele>1232</ele>
        <time>2019-02-06T08:41:02Z</time>
      </trkpt>
      <trkpt lat="48.0519" lon="7.01628">
        <ele>1231</ele>
        <time>2019-02-06T08:41:20Z</time>
      </trkpt>
      <trkpt lat="48.05187" lon="7.01643">
        <ele>1230</ele>
        <time>2019-02-06T08:42:15Z</time>
      </trkpt>
      <trkpt lat="48.05187" lon="7.01653">
        <ele>1230</ele>
        <time>2019-02-06T08:42:23Z</time>
      </trkpt>
      <trkpt lat="48.05186" lon="7.0166">
        <ele>1228</ele>
        <time>2019-02-06T08:42:28Z</time>
      </trkpt>
      <trkpt lat="48.05186" lon="7.01666">
        <ele>1228</ele>
        <time>2019-02-06T08:42:36Z</time>
      </trkpt>
      <trkpt lat="48.05183" lon="7.01672">
        <ele>1232</ele>
        <time>2019-02-06T08:43:00Z</time>
      </trkpt>
      <trkpt lat="48.05183" lon="7.01679">
        <ele>1231</ele>
        <time>2019-02-06T08:43:08Z</time>
      </trkpt>
      <trkpt lat="48.05182" lon="7.01685">
        <ele>1229</ele>
        <time>2019-02-06T08:43:16Z</time>
      </trkpt>
      <trkpt lat="48.05182" lon="7.01698">
        <ele>1228</ele>
        <time>2019-02-06T08:43:26Z</time>
      </trkpt>
      <trkpt lat="48.0518" lon="7.01733">
        <ele>1229</ele>
        <time>2019-02-06T08:43:49Z</time>
      </trkpt>
      <trkpt lat="48.05178" lon="7.01759">
        <ele>1231</ele>
        <time>2019-02-06T08:44:08Z</time>
      </trkpt>
      <trkpt lat="48.05176" lon="7.01765">
        <ele>1231</ele>
        <time>2019-02-06T08:44:13Z</time>
      </trkpt>
      <trkpt lat="48.05179" lon="7.01794">
        <ele>1208</ele>
        <time>2019-02-06T08:44:45Z</time>
      </trkpt>
      <trkpt lat="48.05174" lon="7.01801">
        <ele>1171</ele>
        <time>2019-02-06T08:44:47Z</time>
      </trkpt>
      <trkpt lat="48.05174" lon="7.01808">
        <ele>1203</ele>
        <time>2019-02-06T08:44:51Z</time>
      </trkpt>
      <trkpt lat="48.05171" lon="7.01828">
        <ele>1231</ele>
        <time>2019-02-06T08:45:03Z</time>
      </trkpt>
      <trkpt lat="48.05169" lon="7.01881">
        <ele>1227</ele>
        <time>2019-02-06T08:45:34Z</time>
      </trkpt>
      <trkpt lat="48.05169" lon="7.01901">
        <ele>1225</ele>
        <time>2019-02-06T08:45:46Z</time>
      </trkpt>
      <trkpt lat="48.05173" lon="7.01928">
        <ele>1225</ele>
        <time>2019-02-06T08:46:04Z</time>
      </trkpt>
      <trkpt lat="48.05177" lon="7.0194">
        <ele>1224</ele>
        <time>2019-02-06T08:46:12Z</time>
      </trkpt>
      <trkpt lat="48.05179" lon="7.01951">
        <ele>1222</ele>
        <time>2019-02-06T08:46:19Z</time>
      </trkpt>
      <trkpt lat="48.05187" lon="7.01963">
        <ele>1205</ele>
        <time>2019-02-06T08:46:33Z</time>
      </trkpt>
      <trkpt lat="48.05193" lon="7.01978">
        <ele>1218</ele>
        <time>2019-02-06T08:46:43Z</time>
      </trkpt>
      <trkpt lat="48.05198" lon="7.01991">
        <ele>1226</ele>
        <time>2019-02-06T08:46:52Z</time>
      </trkpt>
      <trkpt lat="48.05197" lon="7.02004">
        <ele>1227</ele>
        <time>2019-02-06T08:47:04Z</time>
      </trkpt>
      <trkpt lat="48.05197" lon="7.02018">
        <ele>1229</ele>
        <time>2019-02-06T08:47:24Z</time>
      </trkpt>
      <trkpt lat="48.05194" lon="7.02023">
        <ele>1228</ele>
        <time>2019-02-06T08:47:31Z</time>
      </trkpt>
      <trkpt lat="48.05188" lon="7.02033">
        <ele>1226</ele>
        <time>2019-02-06T08:47:43Z</time>
      </trkpt>
      <trkpt lat="48.05181" lon="7.02042">
        <ele>1225</ele>
        <time>2019-02-06T08:47:59Z</time>
      </trkpt>
      <trkpt lat="48.05181" lon="7.02048">
        <ele>1225</ele>
        <time>2019-02-06T08:48:48Z</time>
      </trkpt>
      <trkpt lat="48.05173" lon="7.02065">
        <ele>1223</ele>
        <time>2019-02-06T08:54:46Z</time>
      </trkpt>
      <trkpt lat="48.0514" lon="7.02122">
        <ele>1222</ele>
        <time>2019-02-06T08:55:19Z</time>
      </trkpt>
      <trkpt lat="48.05129" lon="7.02145">
        <ele>1225</ele>
        <time>2019-02-06T08:55:34Z</time>
      </trkpt>
      <trkpt lat="48.05108" lon="7.02195">
        <ele>1225</ele>
        <time>2019-02-06T08:56:07Z</time>
      </trkpt>
      <trkpt lat="48.05103" lon="7.02208">
        <ele>1224</ele>
        <time>2019-02-06T08:56:15Z</time>
      </trkpt>
      <trkpt lat="48.05098" lon="7.02214">
        <ele>1224</ele>
        <time>2019-02-06T08:56:19Z</time>
      </trkpt>
      <trkpt lat="48.05094" lon="7.02226">
        <ele>1212</ele>
        <time>2019-02-06T08:56:27Z</time>
      </trkpt>
      <trkpt lat="48.05096" lon="7.02235">
        <ele>1214</ele>
        <time>2019-02-06T08:56:31Z</time>
      </trkpt>
      <trkpt lat="48.05092" lon="7.02242">
        <ele>1217</ele>
        <time>2019-02-06T08:56:34Z</time>
      </trkpt>
      <trkpt lat="48.05091" lon="7.02248">
        <ele>1218</ele>
        <time>2019-02-06T08:56:38Z</time>
      </trkpt>
      <trkpt lat="48.05089" lon="7.02255">
        <ele>1220</ele>
        <time>2019-02-06T08:56:41Z</time>
      </trkpt>
      <trkpt lat="48.05075" lon="7.0228">
        <ele>1220</ele>
        <time>2019-02-06T08:56:57Z</time>
      </trkpt>
      <trkpt lat="48.05066" lon="7.02284">
        <ele>1222</ele>
        <time>2019-02-06T08:57:06Z</time>
      </trkpt>
      <trkpt lat="48.05036" lon="7.02309">
        <ele>1221</ele>
        <time>2019-02-06T08:57:34Z</time>
      </trkpt>
      <trkpt lat="48.05032" lon="7.02312">
        <ele>1217</ele>
        <time>2019-02-06T08:58:24Z</time>
      </trkpt>
      <trkpt lat="48.05027" lon="7.02312">
        <ele>1217</ele>
        <time>2019-02-06T08:58:40Z</time>
      </trkpt>
      <trkpt lat="48.05018" lon="7.02315">
        <ele>1215</ele>
        <time>2019-02-06T08:58:55Z</time>
      </trkpt>
      <trkpt lat="48.05014" lon="7.02319">
        <ele>1217</ele>
        <time>2019-02-06T08:59:01Z</time>
      </trkpt>
      <trkpt lat="48.04975" lon="7.02342">
        <ele>1148</ele>
        <time>2019-02-06T08:59:45Z</time>
      </trkpt>
      <trkpt lat="48.04989" lon="7.0234">
        <ele>1147</ele>
        <time>2019-02-06T08:59:46Z</time>
      </trkpt>
      <trkpt lat="48.04992" lon="7.02344">
        <ele>1206</ele>
        <time>2019-02-06T08:59:52Z</time>
      </trkpt>
      <trkpt lat="48.0499" lon="7.02349">
        <ele>1213</ele>
        <time>2019-02-06T08:59:58Z</time>
      </trkpt>
      <trkpt lat="48.04987" lon="7.02354">
        <ele>1218</ele>
        <time>2019-02-06T09:00:04Z</time>
      </trkpt>
      <trkpt lat="48.04986" lon="7.02354">
        <ele>1217</ele>
        <time>2019-02-06T09:01:48Z</time>
      </trkpt>
      <trkpt lat="48.04992" lon="7.02353">
        <ele>1220</ele>
        <time>2019-02-06T09:06:20Z</time>
      </trkpt>
      <trkpt lat="48.04996" lon="7.02353">
        <ele>1221</ele>
        <time>2019-02-06T09:06:27Z</time>
      </trkpt>
      <trkpt lat="48.05003" lon="7.02343">
        <ele>1221</ele>
        <time>2019-02-06T09:06:40Z</time>
      </trkpt>
      <trkpt lat="48.05007" lon="7.02338">
        <ele>1221</ele>
        <time>2019-02-06T09:07:14Z</time>
      </trkpt>
      <trkpt lat="48.05024" lon="7.02325">
        <ele>1220</ele>
        <time>2019-02-06T09:07:34Z</time>
      </trkpt>
      <trkpt lat="48.05054" lon="7.023">
        <ele>1220</ele>
        <time>2019-02-06T09:08:07Z</time>
      </trkpt>
      <trkpt lat="48.05057" lon="7.02294">
        <ele>1220</ele>
        <time>2019-02-06T09:08:11Z</time>
      </trkpt>
      <trkpt lat="48.05065" lon="7.02267">
        <ele>1222</ele>
        <time>2019-02-06T09:08:26Z</time>
      </trkpt>
      <trkpt lat="48.05068" lon="7.02256">
        <ele>1221</ele>
        <time>2019-02-06T09:08:32Z</time>
      </trkpt>
      <trkpt lat="48.05077" lon="7.02229">
        <ele>1221</ele>
        <time>2019-02-06T09:08:49Z</time>
      </trkpt>
      <trkpt lat="48.0508" lon="7.02224">
        <ele>1222</ele>
        <time>2019-02-06T09:08:52Z</time>
      </trkpt>
      <trkpt lat="48.05091" lon="7.02191">
        <ele>1227</ele>
        <time>2019-02-06T09:09:13Z</time>
      </trkpt>
      <trkpt lat="48.05112" lon="7.02145">
        <ele>1211</ele>
        <time>2019-02-06T09:09:46Z</time>
      </trkpt>
      <trkpt lat="48.05111" lon="7.02131">
        <ele>1210</ele>
        <time>2019-02-06T09:09:50Z</time>
      </trkpt>
      <trkpt lat="48.05123" lon="7.02101">
        <ele>1219</ele>
        <time>2019-02-06T09:10:08Z</time>
      </trkpt>
      <trkpt lat="48.05122" lon="7.02094">
        <ele>1219</ele>
        <time>2019-02-06T09:10:09Z</time>
      </trkpt>
      <trkpt lat="48.05124" lon="7.02087">
        <ele>1220</ele>
        <time>2019-02-06T09:10:15Z</time>
      </trkpt>
      <trkpt lat="48.05126" lon="7.02079">
        <ele>1221</ele>
        <time>2019-02-06T09:10:19Z</time>
      </trkpt>
      <trkpt lat="48.05132" lon="7.02071">
        <ele>1221</ele>
        <time>2019-02-06T09:10:25Z</time>
      </trkpt>
      <trkpt lat="48.05145" lon="7.02028">
        <ele>1227</ele>
        <time>2019-02-06T09:10:53Z</time>
      </trkpt>
      <trkpt lat="48.05144" lon="7.02021">
        <ele>1227</ele>
        <time>2019-02-06T09:11:00Z</time>
      </trkpt>
      <trkpt lat="48.05151" lon="7.0201">
        <ele>1226</ele>
        <time>2019-02-06T09:11:10Z</time>
      </trkpt>
      <trkpt lat="48.05152" lon="7.02002">
        <ele>1226</ele>
        <time>2019-02-06T09:11:18Z</time>
      </trkpt>
      <trkpt lat="48.05156" lon="7.01995">
        <ele>1225</ele>
        <time>2019-02-06T09:11:24Z</time>
      </trkpt>
      <trkpt lat="48.05165" lon="7.01975">
        <ele>1226</ele>
        <time>2019-02-06T09:11:37Z</time>
      </trkpt>
      <trkpt lat="48.05165" lon="7.01923">
        <ele>1233</ele>
        <time>2019-02-06T09:12:07Z</time>
      </trkpt>
      <trkpt lat="48.05161" lon="7.01895">
        <ele>1232</ele>
        <time>2019-02-06T09:12:28Z</time>
      </trkpt>
      <trkpt lat="48.05166" lon="7.01893">
        <ele>1231</ele>
        <time>2019-02-06T09:12:40Z</time>
      </trkpt>
      <trkpt lat="48.05166" lon="7.01886">
        <ele>1232</ele>
        <time>2019-02-06T09:12:48Z</time>
      </trkpt>
      <trkpt lat="48.05167" lon="7.01858">
        <ele>1231</ele>
        <time>2019-02-06T09:13:03Z</time>
      </trkpt>
      <trkpt lat="48.05167" lon="7.01809">
        <ele>1235</ele>
        <time>2019-02-06T09:13:28Z</time>
      </trkpt>
      <trkpt lat="48.05166" lon="7.01803">
        <ele>1235</ele>
        <time>2019-02-06T09:13:34Z</time>
      </trkpt>
      <trkpt lat="48.05157" lon="7.01788">
        <ele>1233</ele>
        <time>2019-02-06T09:13:47Z</time>
      </trkpt>
      <trkpt lat="48.05153" lon="7.01785">
        <ele>1232</ele>
        <time>2019-02-06T09:13:51Z</time>
      </trkpt>
      <trkpt lat="48.05152" lon="7.01777">
        <ele>1230</ele>
        <time>2019-02-06T09:13:55Z</time>
      </trkpt>
      <trkpt lat="48.05148" lon="7.01773">
        <ele>1229</ele>
        <time>2019-02-06T09:14:00Z</time>
      </trkpt>
      <trkpt lat="48.0511" lon="7.01725">
        <ele>1248</ele>
        <time>2019-02-06T09:14:46Z</time>
      </trkpt>
      <trkpt lat="48.05109" lon="7.01718">
        <ele>1240</ele>
        <time>2019-02-06T09:14:50Z</time>
      </trkpt>
      <trkpt lat="48.05106" lon="7.01714">
        <ele>1234</ele>
        <time>2019-02-06T09:14:56Z</time>
      </trkpt>
      <trkpt lat="48.05088" lon="7.01706">
        <ele>1233</ele>
        <time>2019-02-06T09:15:23Z</time>
      </trkpt>
      <trkpt lat="48.05079" lon="7.01702">
        <ele>1234</ele>
        <time>2019-02-06T09:15:33Z</time>
      </trkpt>
      <trkpt lat="48.05075" lon="7.01698">
        <ele>1234</ele>
        <time>2019-02-06T09:15:38Z</time>
      </trkpt>
      <trkpt lat="48.05073" lon="7.01692">
        <ele>1234</ele>
        <time>2019-02-06T09:15:43Z</time>
      </trkpt>
      <trkpt lat="48.05061" lon="7.01684">
        <ele>1236</ele>
        <time>2019-02-06T09:15:57Z</time>
      </trkpt>
      <trkpt lat="48.05046" lon="7.01668">
        <ele>1240</ele>
        <time>2019-02-06T09:16:19Z</time>
      </trkpt>
      <trkpt lat="48.05041" lon="7.01667">
        <ele>1241</ele>
        <time>2019-02-06T09:16:24Z</time>
      </trkpt>
      <trkpt lat="48.05038" lon="7.01662">
        <ele>1241</ele>
        <time>2019-02-06T09:16:29Z</time>
      </trkpt>
      <trkpt lat="48.05034" lon="7.01659">
        <ele>1241</ele>
        <time>2019-02-06T09:16:32Z</time>
      </trkpt>
      <trkpt lat="48.0503" lon="7.01657">
        <ele>1241</ele>
        <time>2019-02-06T09:16:37Z</time>
      </trkpt>
      <trkpt lat="48.05027" lon="7.01652">
        <ele>1240</ele>
        <time>2019-02-06T09:16:42Z</time>
      </trkpt>
      <trkpt lat="48.05018" lon="7.01646">
        <ele>1242</ele>
        <time>2019-02-06T09:16:51Z</time>
      </trkpt>
      <trkpt lat="48.05012" lon="7.01641">
        <ele>1243</ele>
        <time>2019-02-06T09:16:57Z</time>
      </trkpt>
      <trkpt lat="48.05009" lon="7.01636">
        <ele>1242</ele>
        <time>2019-02-06T09:17:13Z</time>
      </trkpt>
      <trkpt lat="48.04993" lon="7.01624">
        <ele>1243</ele>
        <time>2019-02-06T09:17:29Z</time>
      </trkpt>
      <trkpt lat="48.04988" lon="7.01623">
        <ele>1243</ele>
        <time>2019-02-06T09:17:35Z</time>
      </trkpt>
      <trkpt lat="48.04983" lon="7.01623">
        <ele>1244</ele>
        <time>2019-02-06T09:17:40Z</time>
      </trkpt>
      <trkpt lat="48.0498" lon="7.01621">
        <ele>1245</ele>
        <time>2019-02-06T09:17:45Z</time>
      </trkpt>
      <trkpt lat="48.04975" lon="7.0162">
        <ele>1244</ele>
        <time>2019-02-06T09:18:00Z</time>
      </trkpt>
      <trkpt lat="48.0497" lon="7.01619">
        <ele>1245</ele>
        <time>2019-02-06T09:18:14Z</time>
      </trkpt>
      <trkpt lat="48.04966" lon="7.01615">
        <ele>1244</ele>
        <time>2019-02-06T09:18:20Z</time>
      </trkpt>
      <trkpt lat="48.04961" lon="7.01609">
        <ele>1245</ele>
        <time>2019-02-06T09:18:25Z</time>
      </trkpt>
      <trkpt lat="48.04953" lon="7.01602">
        <ele>1245</ele>
        <time>2019-02-06T09:18:36Z</time>
      </trkpt>
      <trkpt lat="48.0495" lon="7.01597">
        <ele>1246</ele>
        <time>2019-02-06T09:18:42Z</time>
      </trkpt>
      <trkpt lat="48.04933" lon="7.01585">
        <ele>1249</ele>
        <time>2019-02-06T09:19:15Z</time>
      </trkpt>
      <trkpt lat="48.04911" lon="7.01525">
        <ele>1272</ele>
        <time>2019-02-06T09:19:47Z</time>
      </trkpt>
      <trkpt lat="48.04913" lon="7.0154">
        <ele>1268</ele>
        <time>2019-02-06T09:19:50Z</time>
      </trkpt>
      <trkpt lat="48.04912" lon="7.0154">
        <ele>1253</ele>
        <time>2019-02-06T09:20:13Z</time>
      </trkpt>
      <trkpt lat="48.04906" lon="7.01533">
        <ele>1251</ele>
        <time>2019-02-06T09:20:30Z</time>
      </trkpt>
      <trkpt lat="48.04901" lon="7.01531">
        <ele>1252</ele>
        <time>2019-02-06T09:20:39Z</time>
      </trkpt>
      <trkpt lat="48.04886" lon="7.01518">
        <ele>1255</ele>
        <time>2019-02-06T09:20:58Z</time>
      </trkpt>
      <trkpt lat="48.04882" lon="7.01516">
        <ele>1255</ele>
        <time>2019-02-06T09:21:04Z</time>
      </trkpt>
      <trkpt lat="48.04878" lon="7.01513">
        <ele>1255</ele>
        <time>2019-02-06T09:21:11Z</time>
      </trkpt>
      <trkpt lat="48.04861" lon="7.01511">
        <ele>1260</ele>
        <time>2019-02-06T09:21:33Z</time>
      </trkpt>
      <trkpt lat="48.04843" lon="7.01503">
        <ele>1262</ele>
        <time>2019-02-06T09:22:00Z</time>
      </trkpt>
      <trkpt lat="48.04839" lon="7.01502">
        <ele>1263</ele>
        <time>2019-02-06T09:22:15Z</time>
      </trkpt>
      <trkpt lat="48.04835" lon="7.01501">
        <ele>1263</ele>
        <time>2019-02-06T09:22:24Z</time>
      </trkpt>
      <trkpt lat="48.04831" lon="7.015">
        <ele>1262</ele>
        <time>2019-02-06T09:22:40Z</time>
      </trkpt>
      <trkpt lat="48.04828" lon="7.01495">
        <ele>1262</ele>
        <time>2019-02-06T09:22:55Z</time>
      </trkpt>
      <trkpt lat="48.04826" lon="7.0149">
        <ele>1265</ele>
        <time>2019-02-06T09:23:04Z</time>
      </trkpt>
      <trkpt lat="48.04821" lon="7.0149">
        <ele>1266</ele>
        <time>2019-02-06T09:23:09Z</time>
      </trkpt>
      <trkpt lat="48.04816" lon="7.01489">
        <ele>1267</ele>
        <time>2019-02-06T09:23:16Z</time>
      </trkpt>
      <trkpt lat="48.04812" lon="7.01489">
        <ele>1267</ele>
        <time>2019-02-06T09:23:19Z</time>
      </trkpt>
      <trkpt lat="48.04804" lon="7.01484">
        <ele>1269</ele>
        <time>2019-02-06T09:23:29Z</time>
      </trkpt>
      <trkpt lat="48.04799" lon="7.01484">
        <ele>1269</ele>
        <time>2019-02-06T09:23:34Z</time>
      </trkpt>
      <trkpt lat="48.04786" lon="7.01485">
        <ele>1271</ele>
        <time>2019-02-06T09:23:50Z</time>
      </trkpt>
      <trkpt lat="48.04782" lon="7.01484">
        <ele>1271</ele>
        <time>2019-02-06T09:23:54Z</time>
      </trkpt>
      <trkpt lat="48.04773" lon="7.01489">
        <ele>1272</ele>
        <time>2019-02-06T09:24:04Z</time>
      </trkpt>
      <trkpt lat="48.04769" lon="7.01489">
        <ele>1273</ele>
        <time>2019-02-06T09:24:08Z</time>
      </trkpt>
      <trkpt lat="48.04763" lon="7.01489">
        <ele>1274</ele>
        <time>2019-02-06T09:24:14Z</time>
      </trkpt>
      <trkpt lat="48.0474" lon="7.01503">
        <ele>1266</ele>
        <time>2019-02-06T09:24:46Z</time>
      </trkpt>
      <trkpt lat="48.04744" lon="7.01497">
        <ele>1271</ele>
        <time>2019-02-06T09:24:49Z</time>
      </trkpt>
      <trkpt lat="48.04739" lon="7.01494">
        <ele>1275</ele>
        <time>2019-02-06T09:25:18Z</time>
      </trkpt>
      <trkpt lat="48.04736" lon="7.0149">
        <ele>1275</ele>
        <time>2019-02-06T09:25:27Z</time>
      </trkpt>
      <trkpt lat="48.04734" lon="7.01497">
        <ele>1275</ele>
        <time>2019-02-06T09:25:35Z</time>
      </trkpt>
      <trkpt lat="48.0473" lon="7.01502">
        <ele>1271</ele>
        <time>2019-02-06T09:28:21Z</time>
      </trkpt>
      <trkpt lat="48.04728" lon="7.01497">
        <ele>1273</ele>
        <time>2019-02-06T09:32:04Z</time>
      </trkpt>
      <trkpt lat="48.04719" lon="7.01495">
        <ele>1276</ele>
        <time>2019-02-06T09:32:40Z</time>
      </trkpt>
      <trkpt lat="48.04706" lon="7.01501">
        <ele>1275</ele>
        <time>2019-02-06T09:33:10Z</time>
      </trkpt>
      <trkpt lat="48.04703" lon="7.01496">
        <ele>1275</ele>
        <time>2019-02-06T09:33:15Z</time>
      </trkpt>
      <trkpt lat="48.04704" lon="7.0149">
        <ele>1274</ele>
        <time>2019-02-06T09:36:29Z</time>
      </trkpt>
      <trkpt lat="48.04706" lon="7.01484">
        <ele>1275</ele>
        <time>2019-02-06T09:38:03Z</time>
      </trkpt>
      <trkpt lat="48.04706" lon="7.01477">
        <ele>1274</ele>
        <time>2019-02-06T09:38:11Z</time>
      </trkpt>
      <trkpt lat="48.047" lon="7.01464">
        <ele>1275</ele>
        <time>2019-02-06T09:38:28Z</time>
      </trkpt>
      <trkpt lat="48.04692" lon="7.01447">
        <ele>1276</ele>
        <time>2019-02-06T09:38:43Z</time>
      </trkpt>
      <trkpt lat="48.04689" lon="7.01443">
        <ele>1276</ele>
        <time>2019-02-06T09:38:47Z</time>
      </trkpt>
      <trkpt lat="48.04686" lon="7.01437">
        <ele>1277</ele>
        <time>2019-02-06T09:38:51Z</time>
      </trkpt>
      <trkpt lat="48.04683" lon="7.01432">
        <ele>1278</ele>
        <time>2019-02-06T09:38:55Z</time>
      </trkpt>
      <trkpt lat="48.04682" lon="7.01418">
        <ele>1279</ele>
        <time>2019-02-06T09:39:05Z</time>
      </trkpt>
      <trkpt lat="48.04677" lon="7.01409">
        <ele>1278</ele>
        <time>2019-02-06T09:39:14Z</time>
      </trkpt>
      <trkpt lat="48.04673" lon="7.01405">
        <ele>1279</ele>
        <time>2019-02-06T09:39:18Z</time>
      </trkpt>
      <trkpt lat="48.04646" lon="7.01381">
        <ele>1282</ele>
        <time>2019-02-06T09:39:50Z</time>
      </trkpt>
      <trkpt lat="48.04642" lon="7.01377">
        <ele>1284</ele>
        <time>2019-02-06T09:39:55Z</time>
      </trkpt>
      <trkpt lat="48.04639" lon="7.01373">
        <ele>1283</ele>
        <time>2019-02-06T09:40:02Z</time>
      </trkpt>
      <trkpt lat="48.04635" lon="7.01371">
        <ele>1283</ele>
        <time>2019-02-06T09:40:06Z</time>
      </trkpt>
      <trkpt lat="48.04623" lon="7.01361">
        <ele>1283</ele>
        <time>2019-02-06T09:40:19Z</time>
      </trkpt>
      <trkpt lat="48.04593" lon="7.01343">
        <ele>1287</ele>
        <time>2019-02-06T09:40:49Z</time>
      </trkpt>
      <trkpt lat="48.04569" lon="7.01315">
        <ele>1286</ele>
        <time>2019-02-06T09:41:23Z</time>
      </trkpt>
      <trkpt lat="48.04565" lon="7.01313">
        <ele>1286</ele>
        <time>2019-02-06T09:41:27Z</time>
      </trkpt>
      <trkpt lat="48.04562" lon="7.01308">
        <ele>1285</ele>
        <time>2019-02-06T09:41:32Z</time>
      </trkpt>
      <trkpt lat="48.04539" lon="7.01295">
        <ele>1289</ele>
        <time>2019-02-06T09:41:56Z</time>
      </trkpt>
      <trkpt lat="48.04533" lon="7.01285">
        <ele>1290</ele>
        <time>2019-02-06T09:42:06Z</time>
      </trkpt>
      <trkpt lat="48.04529" lon="7.01282">
        <ele>1289</ele>
        <time>2019-02-06T09:42:11Z</time>
      </trkpt>
      <trkpt lat="48.04525" lon="7.0128">
        <ele>1287</ele>
        <time>2019-02-06T09:42:15Z</time>
      </trkpt>
      <trkpt lat="48.04506" lon="7.0126">
        <ele>1291</ele>
        <time>2019-02-06T09:42:38Z</time>
      </trkpt>
      <trkpt lat="48.04501" lon="7.01261">
        <ele>1292</ele>
        <time>2019-02-06T09:42:42Z</time>
      </trkpt>
      <trkpt lat="48.04497" lon="7.0126">
        <ele>1294</ele>
        <time>2019-02-06T09:42:46Z</time>
      </trkpt>
      <trkpt lat="48.04472" lon="7.01238">
        <ele>1297</ele>
        <time>2019-02-06T09:43:20Z</time>
      </trkpt>
      <trkpt lat="48.04459" lon="7.01235">
        <ele>1297</ele>
        <time>2019-02-06T09:43:30Z</time>
      </trkpt>
      <trkpt lat="48.04451" lon="7.01228">
        <ele>1299</ele>
        <time>2019-02-06T09:43:38Z</time>
      </trkpt>
      <trkpt lat="48.04446" lon="7.01227">
        <ele>1300</ele>
        <time>2019-02-06T09:43:43Z</time>
      </trkpt>
      <trkpt lat="48.04437" lon="7.01223">
        <ele>1301</ele>
        <time>2019-02-06T09:43:53Z</time>
      </trkpt>
      <trkpt lat="48.04434" lon="7.01218">
        <ele>1301</ele>
        <time>2019-02-06T09:43:59Z</time>
      </trkpt>
      <trkpt lat="48.04437" lon="7.01213">
        <ele>1300</ele>
        <time>2019-02-06T09:44:03Z</time>
      </trkpt>
      <trkpt lat="48.04431" lon="7.01204">
        <ele>1297</ele>
        <time>2019-02-06T09:44:15Z</time>
      </trkpt>
      <trkpt lat="48.04393" lon="7.01189">
        <ele>1290</ele>
        <time>2019-02-06T09:44:49Z</time>
      </trkpt>
      <trkpt lat="48.0439" lon="7.01184">
        <ele>1295</ele>
        <time>2019-02-06T09:44:58Z</time>
      </trkpt>
      <trkpt lat="48.0436" lon="7.01175">
        <ele>1298</ele>
        <time>2019-02-06T09:45:28Z</time>
      </trkpt>
      <trkpt lat="48.04355" lon="7.01175">
        <ele>1298</ele>
        <time>2019-02-06T09:45:32Z</time>
      </trkpt>
      <trkpt lat="48.04341" lon="7.01172">
        <ele>1300</ele>
        <time>2019-02-06T09:45:48Z</time>
      </trkpt>
      <trkpt lat="48.04337" lon="7.01171">
        <ele>1300</ele>
        <time>2019-02-06T09:45:52Z</time>
      </trkpt>
      <trkpt lat="48.04304" lon="7.01157">
        <ele>1302</ele>
        <time>2019-02-06T09:46:24Z</time>
      </trkpt>
      <trkpt lat="48.04299" lon="7.01156">
        <ele>1303</ele>
        <time>2019-02-06T09:46:28Z</time>
      </trkpt>
      <trkpt lat="48.04285" lon="7.01149">
        <ele>1303</ele>
        <time>2019-02-06T09:46:42Z</time>
      </trkpt>
      <trkpt lat="48.04281" lon="7.01147">
        <ele>1302</ele>
        <time>2019-02-06T09:46:46Z</time>
      </trkpt>
      <trkpt lat="48.04278" lon="7.01144">
        <ele>1302</ele>
        <time>2019-02-06T09:46:52Z</time>
      </trkpt>
      <trkpt lat="48.04276" lon="7.01138">
        <ele>1301</ele>
        <time>2019-02-06T09:46:59Z</time>
      </trkpt>
      <trkpt lat="48.04272" lon="7.01137">
        <ele>1301</ele>
        <time>2019-02-06T09:48:50Z</time>
      </trkpt>
      <trkpt lat="48.04247" lon="7.01122">
        <ele>1303</ele>
        <time>2019-02-06T09:49:12Z</time>
      </trkpt>
      <trkpt lat="48.04237" lon="7.01118">
        <ele>1302</ele>
        <time>2019-02-06T09:49:19Z</time>
      </trkpt>
      <trkpt lat="48.04204" lon="7.01106">
        <ele>1305</ele>
        <time>2019-02-06T09:49:48Z</time>
      </trkpt>
      <trkpt lat="48.04202" lon="7.01099">
        <ele>1302</ele>
        <time>2019-02-06T09:49:56Z</time>
      </trkpt>
      <trkpt lat="48.04198" lon="7.01097">
        <ele>1299</ele>
        <time>2019-02-06T09:50:01Z</time>
      </trkpt>
      <trkpt lat="48.04179" lon="7.01096">
        <ele>1296</ele>
        <time>2019-02-06T09:50:19Z</time>
      </trkpt>
      <trkpt lat="48.04174" lon="7.01096">
        <ele>1295</ele>
        <time>2019-02-06T09:50:26Z</time>
      </trkpt>
      <trkpt lat="48.04171" lon="7.011">
        <ele>1292</ele>
        <time>2019-02-06T09:50:44Z</time>
      </trkpt>
      <trkpt lat="48.04149" lon="7.01123">
        <ele>1294</ele>
        <time>2019-02-06T09:51:16Z</time>
      </trkpt>
      <trkpt lat="48.04135" lon="7.01139">
        <ele>1296</ele>
        <time>2019-02-06T09:51:43Z</time>
      </trkpt>
      <trkpt lat="48.04128" lon="7.01157">
        <ele>1299</ele>
        <time>2019-02-06T09:52:04Z</time>
      </trkpt>
      <trkpt lat="48.04125" lon="7.01168">
        <ele>1300</ele>
        <time>2019-02-06T09:52:44Z</time>
      </trkpt>
      <trkpt lat="48.04122" lon="7.01174">
        <ele>1302</ele>
        <time>2019-02-06T09:52:54Z</time>
      </trkpt>
      <trkpt lat="48.04121" lon="7.0118">
        <ele>1302</ele>
        <time>2019-02-06T09:53:54Z</time>
      </trkpt>
      <trkpt lat="48.04111" lon="7.01204">
        <ele>1306</ele>
        <time>2019-02-06T09:54:19Z</time>
      </trkpt>
      <trkpt lat="48.04094" lon="7.01232">
        <ele>1309</ele>
        <time>2019-02-06T09:54:50Z</time>
      </trkpt>
      <trkpt lat="48.0409" lon="7.01233">
        <ele>1313</ele>
        <time>2019-02-06T09:54:56Z</time>
      </trkpt>
      <trkpt lat="48.04087" lon="7.0124">
        <ele>1316</ele>
        <time>2019-02-06T09:55:02Z</time>
      </trkpt>
      <trkpt lat="48.04083" lon="7.01244">
        <ele>1317</ele>
        <time>2019-02-06T09:55:09Z</time>
      </trkpt>
      <trkpt lat="48.04078" lon="7.01258">
        <ele>1310</ele>
        <time>2019-02-06T09:55:21Z</time>
      </trkpt>
      <trkpt lat="48.04069" lon="7.01282">
        <ele>1318</ele>
        <time>2019-02-06T09:55:41Z</time>
      </trkpt>
      <trkpt lat="48.04067" lon="7.01295">
        <ele>1320</ele>
        <time>2019-02-06T09:55:53Z</time>
      </trkpt>
      <trkpt lat="48.0405" lon="7.01329">
        <ele>1322</ele>
        <time>2019-02-06T09:56:29Z</time>
      </trkpt>
      <trkpt lat="48.04047" lon="7.01341">
        <ele>1323</ele>
        <time>2019-02-06T09:56:41Z</time>
      </trkpt>
      <trkpt lat="48.04045" lon="7.01361">
        <ele>1326</ele>
        <time>2019-02-06T09:56:59Z</time>
      </trkpt>
      <trkpt lat="48.04031" lon="7.0139">
        <ele>1328</ele>
        <time>2019-02-06T09:57:33Z</time>
      </trkpt>
      <trkpt lat="48.04028" lon="7.01402">
        <ele>1331</ele>
        <time>2019-02-06T09:57:45Z</time>
      </trkpt>
      <trkpt lat="48.04026" lon="7.01408">
        <ele>1331</ele>
        <time>2019-02-06T09:57:52Z</time>
      </trkpt>
      <trkpt lat="48.04015" lon="7.01419">
        <ele>1331</ele>
        <time>2019-02-06T09:58:13Z</time>
      </trkpt>
      <trkpt lat="48.04007" lon="7.01435">
        <ele>1330</ele>
        <time>2019-02-06T09:58:32Z</time>
      </trkpt>
      <trkpt lat="48.04004" lon="7.0144">
        <ele>1332</ele>
        <time>2019-02-06T09:58:38Z</time>
      </trkpt>
      <trkpt lat="48.04001" lon="7.01445">
        <ele>1333</ele>
        <time>2019-02-06T09:58:45Z</time>
      </trkpt>
      <trkpt lat="48.03982" lon="7.01465">
        <ele>1337</ele>
        <time>2019-02-06T09:59:17Z</time>
      </trkpt>
      <trkpt lat="48.03958" lon="7.01486">
        <ele>1341</ele>
        <time>2019-02-06T09:59:47Z</time>
      </trkpt>
      <trkpt lat="48.03924" lon="7.01512">
        <ele>1343</ele>
        <time>2019-02-06T10:00:52Z</time>
      </trkpt>
      <trkpt lat="48.03917" lon="7.01516">
        <ele>1340</ele>
        <time>2019-02-06T10:00:58Z</time>
      </trkpt>
      <trkpt lat="48.03913" lon="7.01519">
        <ele>1345</ele>
        <time>2019-02-06T10:01:16Z</time>
      </trkpt>
      <trkpt lat="48.03909" lon="7.01522">
        <ele>1345</ele>
        <time>2019-02-06T10:01:52Z</time>
      </trkpt>
      <trkpt lat="48.039" lon="7.01527">
        <ele>1347</ele>
        <time>2019-02-06T10:02:03Z</time>
      </trkpt>
      <trkpt lat="48.03893" lon="7.01534">
        <ele>1348</ele>
        <time>2019-02-06T10:02:15Z</time>
      </trkpt>
      <trkpt lat="48.03888" lon="7.01535">
        <ele>1347</ele>
        <time>2019-02-06T10:02:23Z</time>
      </trkpt>
      <trkpt lat="48.03885" lon="7.0154">
        <ele>1347</ele>
        <time>2019-02-06T10:02:29Z</time>
      </trkpt>
      <trkpt lat="48.03861" lon="7.01559">
        <ele>1354</ele>
        <time>2019-02-06T10:03:00Z</time>
      </trkpt>
      <trkpt lat="48.03853" lon="7.01562">
        <ele>1356</ele>
        <time>2019-02-06T10:03:09Z</time>
      </trkpt>
      <trkpt lat="48.0385" lon="7.01568">
        <ele>1356</ele>
        <time>2019-02-06T10:03:16Z</time>
      </trkpt>
      <trkpt lat="48.03846" lon="7.01571">
        <ele>1357</ele>
        <time>2019-02-06T10:03:23Z</time>
      </trkpt>
      <trkpt lat="48.03842" lon="7.0157">
        <ele>1358</ele>
        <time>2019-02-06T10:03:30Z</time>
      </trkpt>
      <trkpt lat="48.03842" lon="7.01576">
        <ele>1357</ele>
        <time>2019-02-06T10:03:43Z</time>
      </trkpt>
      <trkpt lat="48.03838" lon="7.01581">
        <ele>1358</ele>
        <time>2019-02-06T10:03:49Z</time>
      </trkpt>
      <trkpt lat="48.03817" lon="7.01594">
        <ele>1361</ele>
        <time>2019-02-06T10:04:21Z</time>
      </trkpt>
      <trkpt lat="48.03806" lon="7.01603">
        <ele>1363</ele>
        <time>2019-02-06T10:04:42Z</time>
      </trkpt>
      <trkpt lat="48.03797" lon="7.01609">
        <ele>1364</ele>
        <time>2019-02-06T10:04:51Z</time>
      </trkpt>
      <trkpt lat="48.03792" lon="7.01609">
        <ele>1363</ele>
        <time>2019-02-06T10:05:02Z</time>
      </trkpt>
      <trkpt lat="48.03788" lon="7.01612">
        <ele>1364</ele>
        <time>2019-02-06T10:05:07Z</time>
      </trkpt>
      <trkpt lat="48.03779" lon="7.01613">
        <ele>1364</ele>
        <time>2019-02-06T10:05:20Z</time>
      </trkpt>
      <trkpt lat="48.03759" lon="7.01617">
        <ele>1358</ele>
        <time>2019-02-06T10:05:53Z</time>
      </trkpt>
      <trkpt lat="48.03752" lon="7.01617">
        <ele>1359</ele>
        <time>2019-02-06T10:06:26Z</time>
      </trkpt>
      <trkpt lat="48.03753" lon="7.01624">
        <ele>1358</ele>
        <time>2019-02-06T10:07:55Z</time>
      </trkpt>
      <trkpt lat="48.03757" lon="7.01626">
        <ele>1362</ele>
        <time>2019-02-06T10:15:37Z</time>
      </trkpt>
      <trkpt lat="48.03757" lon="7.01632">
        <ele>1363</ele>
        <time>2019-02-06T10:17:02Z</time>
      </trkpt>
      <trkpt lat="48.03759" lon="7.01638">
        <ele>1361</ele>
        <time>2019-02-06T10:17:37Z</time>
      </trkpt>
      <trkpt lat="48.03757" lon="7.01644">
        <ele>1362</ele>
        <time>2019-02-06T10:17:43Z</time>
      </trkpt>
      <trkpt lat="48.03755" lon="7.0165">
        <ele>1363</ele>
        <time>2019-02-06T10:17:47Z</time>
      </trkpt>
      <trkpt lat="48.03751" lon="7.01691">
        <ele>1362</ele>
        <time>2019-02-06T10:18:16Z</time>
      </trkpt>
      <trkpt lat="48.03751" lon="7.01698">
        <ele>1357</ele>
        <time>2019-02-06T10:18:20Z</time>
      </trkpt>
      <trkpt lat="48.0375" lon="7.01735">
        <ele>1357</ele>
        <time>2019-02-06T10:18:45Z</time>
      </trkpt>
      <trkpt lat="48.03748" lon="7.01748">
        <ele>1355</ele>
        <time>2019-02-06T10:18:55Z</time>
      </trkpt>
      <trkpt lat="48.03745" lon="7.0179">
        <ele>1344</ele>
        <time>2019-02-06T10:19:30Z</time>
      </trkpt>
      <trkpt lat="48.03741" lon="7.01833">
        <ele>1338</ele>
        <time>2019-02-06T10:19:57Z</time>
      </trkpt>
      <trkpt lat="48.03741" lon="7.01847">
        <ele>1335</ele>
        <time>2019-02-06T10:20:07Z</time>
      </trkpt>
      <trkpt lat="48.03739" lon="7.01855">
        <ele>1334</ele>
        <time>2019-02-06T10:20:12Z</time>
      </trkpt>
      <trkpt lat="48.03735" lon="7.01897">
        <ele>1328</ele>
        <time>2019-02-06T10:20:37Z</time>
      </trkpt>
      <trkpt lat="48.0373" lon="7.01953">
        <ele>1324</ele>
        <time>2019-02-06T10:21:11Z</time>
      </trkpt>
      <trkpt lat="48.03727" lon="7.01961">
        <ele>1324</ele>
        <time>2019-02-06T10:21:18Z</time>
      </trkpt>
      <trkpt lat="48.03726" lon="7.01968">
        <ele>1324</ele>
        <time>2019-02-06T10:21:22Z</time>
      </trkpt>
      <trkpt lat="48.03726" lon="7.01995">
        <ele>1322</ele>
        <time>2019-02-06T10:21:37Z</time>
      </trkpt>
      <trkpt lat="48.03724" lon="7.02052">
        <ele>1318</ele>
        <time>2019-02-06T10:22:11Z</time>
      </trkpt>
      <trkpt lat="48.03722" lon="7.02065">
        <ele>1318</ele>
        <time>2019-02-06T10:22:19Z</time>
      </trkpt>
      <trkpt lat="48.0372" lon="7.0208">
        <ele>1316</ele>
        <time>2019-02-06T10:22:27Z</time>
      </trkpt>
      <trkpt lat="48.03717" lon="7.02094">
        <ele>1313</ele>
        <time>2019-02-06T10:22:36Z</time>
      </trkpt>
      <trkpt lat="48.03716" lon="7.02103">
        <ele>1311</ele>
        <time>2019-02-06T10:22:41Z</time>
      </trkpt>
      <trkpt lat="48.03714" lon="7.02126">
        <ele>1305</ele>
        <time>2019-02-06T10:22:56Z</time>
      </trkpt>
      <trkpt lat="48.03714" lon="7.0214">
        <ele>1304</ele>
        <time>2019-02-06T10:23:06Z</time>
      </trkpt>
      <trkpt lat="48.03709" lon="7.02168">
        <ele>1304</ele>
        <time>2019-02-06T10:23:20Z</time>
      </trkpt>
      <trkpt lat="48.03704" lon="7.02182">
        <ele>1303</ele>
        <time>2019-02-06T10:23:30Z</time>
      </trkpt>
      <trkpt lat="48.03702" lon="7.02188">
        <ele>1301</ele>
        <time>2019-02-06T10:25:57Z</time>
      </trkpt>
      <trkpt lat="48.03693" lon="7.02221">
        <ele>1297</ele>
        <time>2019-02-06T10:26:26Z</time>
      </trkpt>
      <trkpt lat="48.0369" lon="7.02233">
        <ele>1295</ele>
        <time>2019-02-06T10:26:36Z</time>
      </trkpt>
      <trkpt lat="48.03688" lon="7.02238">
        <ele>1293</ele>
        <time>2019-02-06T10:26:42Z</time>
      </trkpt>
      <trkpt lat="48.03686" lon="7.02247">
        <ele>1292</ele>
        <time>2019-02-06T10:26:50Z</time>
      </trkpt>
      <trkpt lat="48.03674" lon="7.02295">
        <ele>1261</ele>
        <time>2019-02-06T10:27:25Z</time>
      </trkpt>
      <trkpt lat="48.03671" lon="7.02305">
        <ele>1268</ele>
        <time>2019-02-06T10:27:28Z</time>
      </trkpt>
      <trkpt lat="48.03668" lon="7.02309">
        <ele>1275</ele>
        <time>2019-02-06T10:27:36Z</time>
      </trkpt>
      <trkpt lat="48.03666" lon="7.02315">
        <ele>1279</ele>
        <time>2019-02-06T10:27:41Z</time>
      </trkpt>
      <trkpt lat="48.03666" lon="7.02324">
        <ele>1279</ele>
        <time>2019-02-06T10:27:47Z</time>
      </trkpt>
      <trkpt lat="48.03666" lon="7.02339">
        <ele>1279</ele>
        <time>2019-02-06T10:27:58Z</time>
      </trkpt>
      <trkpt lat="48.03671" lon="7.02385">
        <ele>1270</ele>
        <time>2019-02-06T10:28:33Z</time>
      </trkpt>
      <trkpt lat="48.0367" lon="7.02421">
        <ele>1262</ele>
        <time>2019-02-06T10:29:01Z</time>
      </trkpt>
      <trkpt lat="48.03669" lon="7.02427">
        <ele>1261</ele>
        <time>2019-02-06T10:29:05Z</time>
      </trkpt>
      <trkpt lat="48.03667" lon="7.02454">
        <ele>1256</ele>
        <time>2019-02-06T10:29:26Z</time>
      </trkpt>
      <trkpt lat="48.03668" lon="7.02462">
        <ele>1256</ele>
        <time>2019-02-06T10:29:32Z</time>
      </trkpt>
      <trkpt lat="48.03667" lon="7.02501">
        <ele>1248</ele>
        <time>2019-02-06T10:30:05Z</time>
      </trkpt>
      <trkpt lat="48.03663" lon="7.02521">
        <ele>1243</ele>
        <time>2019-02-06T10:30:22Z</time>
      </trkpt>
      <trkpt lat="48.03653" lon="7.02543">
        <ele>1240</ele>
        <time>2019-02-06T10:30:43Z</time>
      </trkpt>
      <trkpt lat="48.03647" lon="7.02554">
        <ele>1238</ele>
        <time>2019-02-06T10:30:53Z</time>
      </trkpt>
      <trkpt lat="48.03645" lon="7.0256">
        <ele>1236</ele>
        <time>2019-02-06T10:33:38Z</time>
      </trkpt>
      <trkpt lat="48.03643" lon="7.02566">
        <ele>1235</ele>
        <time>2019-02-06T10:33:43Z</time>
      </trkpt>
      <trkpt lat="48.03633" lon="7.0258">
        <ele>1232</ele>
        <time>2019-02-06T10:33:58Z</time>
      </trkpt>
      <trkpt lat="48.03629" lon="7.02583">
        <ele>1232</ele>
        <time>2019-02-06T10:34:02Z</time>
      </trkpt>
      <trkpt lat="48.03623" lon="7.02593">
        <ele>1230</ele>
        <time>2019-02-06T10:34:12Z</time>
      </trkpt>
      <trkpt lat="48.0362" lon="7.02599">
        <ele>1230</ele>
        <time>2019-02-06T10:34:16Z</time>
      </trkpt>
      <trkpt lat="48.03609" lon="7.02608">
        <ele>1227</ele>
        <time>2019-02-06T10:34:29Z</time>
      </trkpt>
      <trkpt lat="48.03605" lon="7.02613">
        <ele>1226</ele>
        <time>2019-02-06T10:34:35Z</time>
      </trkpt>
      <trkpt lat="48.03601" lon="7.02617">
        <ele>1225</ele>
        <time>2019-02-06T10:34:39Z</time>
      </trkpt>
      <trkpt lat="48.03599" lon="7.02624">
        <ele>1224</ele>
        <time>2019-02-06T10:34:45Z</time>
      </trkpt>
      <trkpt lat="48.03593" lon="7.02633">
        <ele>1224</ele>
        <time>2019-02-06T10:34:56Z</time>
      </trkpt>
      <trkpt lat="48.03587" lon="7.02634">
        <ele>1223</ele>
        <time>2019-02-06T10:35:02Z</time>
      </trkpt>
      <trkpt lat="48.03567" lon="7.0267">
        <ele>1221</ele>
        <time>2019-02-06T10:35:27Z</time>
      </trkpt>
      <trkpt lat="48.03562" lon="7.0267">
        <ele>1218</ele>
        <time>2019-02-06T10:35:33Z</time>
      </trkpt>
      <trkpt lat="48.03557" lon="7.02675">
        <ele>1217</ele>
        <time>2019-02-06T10:35:39Z</time>
      </trkpt>
      <trkpt lat="48.03545" lon="7.02682">
        <ele>1210</ele>
        <time>2019-02-06T10:36:00Z</time>
      </trkpt>
      <trkpt lat="48.0354" lon="7.02687">
        <ele>1210</ele>
        <time>2019-02-06T10:36:05Z</time>
      </trkpt>
      <trkpt lat="48.03535" lon="7.0269">
        <ele>1203</ele>
        <time>2019-02-06T10:36:18Z</time>
      </trkpt>
      <trkpt lat="48.03532" lon="7.02697">
        <ele>1203</ele>
        <time>2019-02-06T10:36:24Z</time>
      </trkpt>
      <trkpt lat="48.03526" lon="7.02702">
        <ele>1202</ele>
        <time>2019-02-06T10:36:33Z</time>
      </trkpt>
      <trkpt lat="48.03523" lon="7.0271">
        <ele>1204</ele>
        <time>2019-02-06T10:36:42Z</time>
      </trkpt>
      <trkpt lat="48.03519" lon="7.02712">
        <ele>1205</ele>
        <time>2019-02-06T10:36:45Z</time>
      </trkpt>
      <trkpt lat="48.03514" lon="7.02712">
        <ele>1206</ele>
        <time>2019-02-06T10:36:52Z</time>
      </trkpt>
      <trkpt lat="48.03491" lon="7.02716">
        <ele>1201</ele>
        <time>2019-02-06T10:37:27Z</time>
      </trkpt>
      <trkpt lat="48.03491" lon="7.02723">
        <ele>1198</ele>
        <time>2019-02-06T10:37:43Z</time>
      </trkpt>
      <trkpt lat="48.0349" lon="7.02732">
        <ele>1204</ele>
        <time>2019-02-06T10:41:37Z</time>
      </trkpt>
      <trkpt lat="48.03486" lon="7.02735">
        <ele>1195</ele>
        <time>2019-02-06T10:41:52Z</time>
      </trkpt>
      <trkpt lat="48.03474" lon="7.02765">
        <ele>1171</ele>
        <time>2019-02-06T10:42:30Z</time>
      </trkpt>
      <trkpt lat="48.03465" lon="7.02769">
        <ele>1161</ele>
        <time>2019-02-06T10:42:37Z</time>
      </trkpt>
      <trkpt lat="48.03457" lon="7.02784">
        <ele>1181</ele>
        <time>2019-02-06T10:43:01Z</time>
      </trkpt>
      <trkpt lat="48.03449" lon="7.02794">
        <ele>1182</ele>
        <time>2019-02-06T10:43:09Z</time>
      </trkpt>
      <trkpt lat="48.03441" lon="7.02799">
        <ele>1184</ele>
        <time>2019-02-06T10:43:16Z</time>
      </trkpt>
      <trkpt lat="48.03427" lon="7.02804">
        <ele>1187</ele>
        <time>2019-02-06T10:43:34Z</time>
      </trkpt>
      <trkpt lat="48.0342" lon="7.02807">
        <ele>1186</ele>
        <time>2019-02-06T10:43:43Z</time>
      </trkpt>
      <trkpt lat="48.03417" lon="7.02814">
        <ele>1180</ele>
        <time>2019-02-06T10:43:52Z</time>
      </trkpt>
      <trkpt lat="48.03405" lon="7.02831">
        <ele>1178</ele>
        <time>2019-02-06T10:44:08Z</time>
      </trkpt>
      <trkpt lat="48.03401" lon="7.02837">
        <ele>1180</ele>
        <time>2019-02-06T10:44:15Z</time>
      </trkpt>
      <trkpt lat="48.03396" lon="7.02842">
        <ele>1180</ele>
        <time>2019-02-06T10:44:22Z</time>
      </trkpt>
      <trkpt lat="48.0339" lon="7.02847">
        <ele>1179</ele>
        <time>2019-02-06T10:44:29Z</time>
      </trkpt>
      <trkpt lat="48.03378" lon="7.02864">
        <ele>1178</ele>
        <time>2019-02-06T10:44:46Z</time>
      </trkpt>
      <trkpt lat="48.03372" lon="7.0287">
        <ele>1177</ele>
        <time>2019-02-06T10:44:53Z</time>
      </trkpt>
      <trkpt lat="48.03367" lon="7.02878">
        <ele>1179</ele>
        <time>2019-02-06T10:44:59Z</time>
      </trkpt>
      <trkpt lat="48.03357" lon="7.02892">
        <ele>1178</ele>
        <time>2019-02-06T10:45:14Z</time>
      </trkpt>
      <trkpt lat="48.03345" lon="7.02907">
        <ele>1176</ele>
        <time>2019-02-06T10:45:28Z</time>
      </trkpt>
      <trkpt lat="48.0334" lon="7.02911">
        <ele>1178</ele>
        <time>2019-02-06T10:45:32Z</time>
      </trkpt>
      <trkpt lat="48.03336" lon="7.02915">
        <ele>1179</ele>
        <time>2019-02-06T10:45:36Z</time>
      </trkpt>
      <trkpt lat="48.03333" lon="7.02921">
        <ele>1180</ele>
        <time>2019-02-06T10:45:40Z</time>
      </trkpt>
      <trkpt lat="48.0333" lon="7.02926">
        <ele>1180</ele>
        <time>2019-02-06T10:45:44Z</time>
      </trkpt>
      <trkpt lat="48.03324" lon="7.0293">
        <ele>1179</ele>
        <time>2019-02-06T10:45:51Z</time>
      </trkpt>
      <trkpt lat="48.03319" lon="7.02934">
        <ele>1176</ele>
        <time>2019-02-06T10:45:59Z</time>
      </trkpt>
      <trkpt lat="48.03315" lon="7.0294">
        <ele>1176</ele>
        <time>2019-02-06T10:46:08Z</time>
      </trkpt>
      <trkpt lat="48.03312" lon="7.02942">
        <ele>1176</ele>
        <time>2019-02-06T10:46:11Z</time>
      </trkpt>
      <trkpt lat="48.03299" lon="7.02962">
        <ele>1177</ele>
        <time>2019-02-06T10:46:30Z</time>
      </trkpt>
      <trkpt lat="48.03297" lon="7.02968">
        <ele>1177</ele>
        <time>2019-02-06T10:46:36Z</time>
      </trkpt>
      <trkpt lat="48.03284" lon="7.02984">
        <ele>1169</ele>
        <time>2019-02-06T10:46:57Z</time>
      </trkpt>
      <trkpt lat="48.03271" lon="7.03024">
        <ele>1167</ele>
        <time>2019-02-06T10:47:29Z</time>
      </trkpt>
      <trkpt lat="48.03269" lon="7.03037">
        <ele>1168</ele>
        <time>2019-02-06T10:47:40Z</time>
      </trkpt>
      <trkpt lat="48.03265" lon="7.03043">
        <ele>1168</ele>
        <time>2019-02-06T10:47:44Z</time>
      </trkpt>
      <trkpt lat="48.03258" lon="7.03059">
        <ele>1170</ele>
        <time>2019-02-06T10:48:00Z</time>
      </trkpt>
      <trkpt lat="48.03247" lon="7.03081">
        <ele>1169</ele>
        <time>2019-02-06T10:48:18Z</time>
      </trkpt>
      <trkpt lat="48.03241" lon="7.03095">
        <ele>1170</ele>
        <time>2019-02-06T10:48:27Z</time>
      </trkpt>
      <trkpt lat="48.03218" lon="7.03125">
        <ele>1172</ele>
        <time>2019-02-06T10:48:55Z</time>
      </trkpt>
      <trkpt lat="48.03197" lon="7.03139">
        <ele>1163</ele>
        <time>2019-02-06T10:49:27Z</time>
      </trkpt>
      <trkpt lat="48.03188" lon="7.03144">
        <ele>1162</ele>
        <time>2019-02-06T10:49:38Z</time>
      </trkpt>
      <trkpt lat="48.03181" lon="7.03153">
        <ele>1161</ele>
        <time>2019-02-06T10:49:47Z</time>
      </trkpt>
      <trkpt lat="48.03177" lon="7.03155">
        <ele>1161</ele>
        <time>2019-02-06T10:49:51Z</time>
      </trkpt>
      <trkpt lat="48.03172" lon="7.0316">
        <ele>1160</ele>
        <time>2019-02-06T10:50:01Z</time>
      </trkpt>
      <trkpt lat="48.03167" lon="7.03162">
        <ele>1159</ele>
        <time>2019-02-06T10:50:06Z</time>
      </trkpt>
      <trkpt lat="48.03162" lon="7.03166">
        <ele>1161</ele>
        <time>2019-02-06T10:50:12Z</time>
      </trkpt>
      <trkpt lat="48.03149" lon="7.03171">
        <ele>1159</ele>
        <time>2019-02-06T10:50:26Z</time>
      </trkpt>
      <trkpt lat="48.03145" lon="7.03174">
        <ele>1159</ele>
        <time>2019-02-06T10:50:30Z</time>
      </trkpt>
      <trkpt lat="48.03127" lon="7.03181">
        <ele>1159</ele>
        <time>2019-02-06T10:50:51Z</time>
      </trkpt>
      <trkpt lat="48.03118" lon="7.03186">
        <ele>1159</ele>
        <time>2019-02-06T10:51:00Z</time>
      </trkpt>
      <trkpt lat="48.03114" lon="7.03186">
        <ele>1159</ele>
        <time>2019-02-06T10:51:04Z</time>
      </trkpt>
      <trkpt lat="48.0311" lon="7.03188">
        <ele>1159</ele>
        <time>2019-02-06T10:51:07Z</time>
      </trkpt>
      <trkpt lat="48.03106" lon="7.03193">
        <ele>1158</ele>
        <time>2019-02-06T10:51:12Z</time>
      </trkpt>
      <trkpt lat="48.03102" lon="7.03195">
        <ele>1158</ele>
        <time>2019-02-06T10:51:17Z</time>
      </trkpt>
      <trkpt lat="48.03098" lon="7.03199">
        <ele>1157</ele>
        <time>2019-02-06T10:51:21Z</time>
      </trkpt>
      <trkpt lat="48.03091" lon="7.03206">
        <ele>1158</ele>
        <time>2019-02-06T10:51:29Z</time>
      </trkpt>
      <trkpt lat="48.03078" lon="7.03216">
        <ele>1159</ele>
        <time>2019-02-06T10:51:43Z</time>
      </trkpt>
      <trkpt lat="48.03069" lon="7.03221">
        <ele>1160</ele>
        <time>2019-02-06T10:51:51Z</time>
      </trkpt>
      <trkpt lat="48.03065" lon="7.03225">
        <ele>1159</ele>
        <time>2019-02-06T10:51:55Z</time>
      </trkpt>
      <trkpt lat="48.03037" lon="7.03245">
        <ele>1171</ele>
        <time>2019-02-06T10:52:28Z</time>
      </trkpt>
      <trkpt lat="48.03031" lon="7.03245">
        <ele>1170</ele>
        <time>2019-02-06T10:52:32Z</time>
      </trkpt>
      <trkpt lat="48.03025" lon="7.03245">
        <ele>1161</ele>
        <time>2019-02-06T10:52:37Z</time>
      </trkpt>
      <trkpt lat="48.03021" lon="7.03248">
        <ele>1158</ele>
        <time>2019-02-06T10:52:41Z</time>
      </trkpt>
      <trkpt lat="48.03017" lon="7.03252">
        <ele>1152</ele>
        <time>2019-02-06T10:52:49Z</time>
      </trkpt>
      <trkpt lat="48.03004" lon="7.03261">
        <ele>1150</ele>
        <time>2019-02-06T10:53:04Z</time>
      </trkpt>
      <trkpt lat="48.02996" lon="7.03268">
        <ele>1150</ele>
        <time>2019-02-06T10:53:13Z</time>
      </trkpt>
      <trkpt lat="48.02991" lon="7.03269">
        <ele>1149</ele>
        <time>2019-02-06T10:53:18Z</time>
      </trkpt>
      <trkpt lat="48.0297" lon="7.03288">
        <ele>1149</ele>
        <time>2019-02-06T10:53:43Z</time>
      </trkpt>
      <trkpt lat="48.02965" lon="7.03291">
        <ele>1145</ele>
        <time>2019-02-06T10:56:08Z</time>
      </trkpt>
      <trkpt lat="48.02962" lon="7.03296">
        <ele>1146</ele>
        <time>2019-02-06T10:56:14Z</time>
      </trkpt>
      <trkpt lat="48.02944" lon="7.03329">
        <ele>1145</ele>
        <time>2019-02-06T10:56:44Z</time>
      </trkpt>
      <trkpt lat="48.02941" lon="7.03342">
        <ele>1145</ele>
        <time>2019-02-06T10:56:52Z</time>
      </trkpt>
      <trkpt lat="48.0294" lon="7.03349">
        <ele>1144</ele>
        <time>2019-02-06T10:56:57Z</time>
      </trkpt>
      <trkpt lat="48.02936" lon="7.03398">
        <ele>1144</ele>
        <time>2019-02-06T10:57:29Z</time>
      </trkpt>
      <trkpt lat="48.02935" lon="7.03405">
        <ele>1144</ele>
        <time>2019-02-06T10:57:33Z</time>
      </trkpt>
      <trkpt lat="48.0294" lon="7.03416">
        <ele>1141</ele>
        <time>2019-02-06T10:57:42Z</time>
      </trkpt>
      <trkpt lat="48.02945" lon="7.03429">
        <ele>1140</ele>
        <time>2019-02-06T10:57:51Z</time>
      </trkpt>
      <trkpt lat="48.02951" lon="7.03462">
        <ele>1136</ele>
        <time>2019-02-06T10:58:15Z</time>
      </trkpt>
      <trkpt lat="48.02954" lon="7.03469">
        <ele>1135</ele>
        <time>2019-02-06T10:58:19Z</time>
      </trkpt>
      <trkpt lat="48.02965" lon="7.03513">
        <ele>1130</ele>
        <time>2019-02-06T10:58:51Z</time>
      </trkpt>
      <trkpt lat="48.02973" lon="7.03538">
        <ele>1127</ele>
        <time>2019-02-06T10:59:09Z</time>
      </trkpt>
      <trkpt lat="48.02976" lon="7.03542">
        <ele>1126</ele>
        <time>2019-02-06T10:59:14Z</time>
      </trkpt>
      <trkpt lat="48.0298" lon="7.03554">
        <ele>1125</ele>
        <time>2019-02-06T10:59:24Z</time>
      </trkpt>
      <trkpt lat="48.02985" lon="7.03566">
        <ele>1122</ele>
        <time>2019-02-06T10:59:37Z</time>
      </trkpt>
      <trkpt lat="48.02988" lon="7.0357">
        <ele>1120</ele>
        <time>2019-02-06T10:59:44Z</time>
      </trkpt>
      <trkpt lat="48.02993" lon="7.03592">
        <ele>1116</ele>
        <time>2019-02-06T11:00:01Z</time>
      </trkpt>
      <trkpt lat="48.02992" lon="7.03601">
        <ele>1115</ele>
        <time>2019-02-06T11:00:08Z</time>
      </trkpt>
      <trkpt lat="48.03001" lon="7.03619">
        <ele>1112</ele>
        <time>2019-02-06T11:00:21Z</time>
      </trkpt>
      <trkpt lat="48.03014" lon="7.03648">
        <ele>1108</ele>
        <time>2019-02-06T11:00:43Z</time>
      </trkpt>
      <trkpt lat="48.03015" lon="7.03654">
        <ele>1108</ele>
        <time>2019-02-06T11:00:47Z</time>
      </trkpt>
      <trkpt lat="48.03016" lon="7.03662">
        <ele>1107</ele>
        <time>2019-02-06T11:00:53Z</time>
      </trkpt>
      <trkpt lat="48.03023" lon="7.03674">
        <ele>1105</ele>
        <time>2019-02-06T11:01:01Z</time>
      </trkpt>
      <trkpt lat="48.03026" lon="7.03683">
        <ele>1106</ele>
        <time>2019-02-06T11:01:07Z</time>
      </trkpt>
      <trkpt lat="48.03031" lon="7.0369">
        <ele>1104</ele>
        <time>2019-02-06T11:01:12Z</time>
      </trkpt>
      <trkpt lat="48.03043" lon="7.03701">
        <ele>1103</ele>
        <time>2019-02-06T11:01:26Z</time>
      </trkpt>
      <trkpt lat="48.03046" lon="7.03709">
        <ele>1103</ele>
        <time>2019-02-06T11:01:30Z</time>
      </trkpt>
      <trkpt lat="48.03054" lon="7.03725">
        <ele>1101</ele>
        <time>2019-02-06T11:01:44Z</time>
      </trkpt>
      <trkpt lat="48.03063" lon="7.03728">
        <ele>1100</ele>
        <time>2019-02-06T11:01:52Z</time>
      </trkpt>
      <trkpt lat="48.03079" lon="7.03743">
        <ele>1095</ele>
        <time>2019-02-06T11:02:36Z</time>
      </trkpt>
      <trkpt lat="48.03093" lon="7.03752">
        <ele>1077</ele>
        <time>2019-02-06T11:02:44Z</time>
      </trkpt>
      <trkpt lat="48.03105" lon="7.03765">
        <ele>1069</ele>
        <time>2019-02-06T11:02:50Z</time>
      </trkpt>
      <trkpt lat="48.03118" lon="7.03805">
        <ele>1075</ele>
        <time>2019-02-06T11:03:07Z</time>
      </trkpt>
      <trkpt lat="48.0312" lon="7.03832">
        <ele>1078</ele>
        <time>2019-02-06T11:03:18Z</time>
      </trkpt>
      <trkpt lat="48.03122" lon="7.0385">
        <ele>1084</ele>
        <time>2019-02-06T11:03:23Z</time>
      </trkpt>
      <trkpt lat="48.0313" lon="7.03859">
        <ele>1079</ele>
        <time>2019-02-06T11:03:39Z</time>
      </trkpt>
      <trkpt lat="48.03135" lon="7.03881">
        <ele>1069</ele>
        <time>2019-02-06T11:03:54Z</time>
      </trkpt>
      <trkpt lat="48.03137" lon="7.0392">
        <ele>1067</ele>
        <time>2019-02-06T11:04:09Z</time>
      </trkpt>
      <trkpt lat="48.03141" lon="7.03956">
        <ele>1073</ele>
        <time>2019-02-06T11:04:23Z</time>
      </trkpt>
      <trkpt lat="48.03143" lon="7.03966">
        <ele>1075</ele>
        <time>2019-02-06T11:04:27Z</time>
      </trkpt>
      <trkpt lat="48.03144" lon="7.03975">
        <ele>1076</ele>
        <time>2019-02-06T11:04:32Z</time>
      </trkpt>
      <trkpt lat="48.03145" lon="7.03981">
        <ele>1075</ele>
        <time>2019-02-06T11:06:43Z</time>
      </trkpt>
      <trkpt lat="48.03148" lon="7.03987">
        <ele>1075</ele>
        <time>2019-02-06T11:06:48Z</time>
      </trkpt>
      <trkpt lat="48.03151" lon="7.03994">
        <ele>1073</ele>
        <time>2019-02-06T11:06:53Z</time>
      </trkpt>
      <trkpt lat="48.03179" lon="7.04041">
        <ele>1073</ele>
        <time>2019-02-06T11:07:31Z</time>
      </trkpt>
      <trkpt lat="48.03181" lon="7.04062">
        <ele>1068</ele>
        <time>2019-02-06T11:07:36Z</time>
      </trkpt>
      <trkpt lat="48.03185" lon="7.04071">
        <ele>1071</ele>
        <time>2019-02-06T11:07:41Z</time>
      </trkpt>
      <trkpt lat="48.03189" lon="7.04079">
        <ele>1074</ele>
        <time>2019-02-06T11:07:46Z</time>
      </trkpt>
      <trkpt lat="48.03194" lon="7.04085">
        <ele>1075</ele>
        <time>2019-02-06T11:07:51Z</time>
      </trkpt>
      <trkpt lat="48.03206" lon="7.04098">
        <ele>1072</ele>
        <time>2019-02-06T11:08:04Z</time>
      </trkpt>
      <trkpt lat="48.03212" lon="7.04098">
        <ele>1071</ele>
        <time>2019-02-06T11:08:11Z</time>
      </trkpt>
      <trkpt lat="48.03215" lon="7.04108">
        <ele>1068</ele>
        <time>2019-02-06T11:08:16Z</time>
      </trkpt>
      <trkpt lat="48.0322" lon="7.04116">
        <ele>1066</ele>
        <time>2019-02-06T11:08:23Z</time>
      </trkpt>
      <trkpt lat="48.03223" lon="7.04126">
        <ele>1065</ele>
        <time>2019-02-06T11:08:28Z</time>
      </trkpt>
      <trkpt lat="48.03229" lon="7.04131">
        <ele>1065</ele>
        <time>2019-02-06T11:08:34Z</time>
      </trkpt>
      <trkpt lat="48.03236" lon="7.04139">
        <ele>1062</ele>
        <time>2019-02-06T11:08:42Z</time>
      </trkpt>
      <trkpt lat="48.0324" lon="7.04151">
        <ele>1061</ele>
        <time>2019-02-06T11:08:49Z</time>
      </trkpt>
      <trkpt lat="48.03247" lon="7.0416">
        <ele>1057</ele>
        <time>2019-02-06T11:09:01Z</time>
      </trkpt>
      <trkpt lat="48.03256" lon="7.04195">
        <ele>1059</ele>
        <time>2019-02-06T11:09:19Z</time>
      </trkpt>
      <trkpt lat="48.0326" lon="7.042">
        <ele>1056</ele>
        <time>2019-02-06T11:09:26Z</time>
      </trkpt>
      <trkpt lat="48.03264" lon="7.04208">
        <ele>1055</ele>
        <time>2019-02-06T11:09:34Z</time>
      </trkpt>
      <trkpt lat="48.03269" lon="7.04218">
        <ele>1052</ele>
        <time>2019-02-06T11:09:47Z</time>
      </trkpt>
      <trkpt lat="48.03277" lon="7.04248">
        <ele>1050</ele>
        <time>2019-02-06T11:10:03Z</time>
      </trkpt>
      <trkpt lat="48.03281" lon="7.04255">
        <ele>1050</ele>
        <time>2019-02-06T11:10:08Z</time>
      </trkpt>
      <trkpt lat="48.03288" lon="7.04271">
        <ele>1048</ele>
        <time>2019-02-06T11:10:20Z</time>
      </trkpt>
      <trkpt lat="48.03291" lon="7.04279">
        <ele>1048</ele>
        <time>2019-02-06T11:10:24Z</time>
      </trkpt>
      <trkpt lat="48.03293" lon="7.04285">
        <ele>1048</ele>
        <time>2019-02-06T11:10:28Z</time>
      </trkpt>
      <trkpt lat="48.03297" lon="7.04294">
        <ele>1047</ele>
        <time>2019-02-06T11:10:35Z</time>
      </trkpt>
      <trkpt lat="48.03319" lon="7.04342">
        <ele>1036</ele>
        <time>2019-02-06T11:11:06Z</time>
      </trkpt>
      <trkpt lat="48.03323" lon="7.0435">
        <ele>1033</ele>
        <time>2019-02-06T11:11:13Z</time>
      </trkpt>
      <trkpt lat="48.03327" lon="7.04355">
        <ele>1034</ele>
        <time>2019-02-06T11:11:17Z</time>
      </trkpt>
      <trkpt lat="48.03339" lon="7.04367">
        <ele>1034</ele>
        <time>2019-02-06T11:11:26Z</time>
      </trkpt>
      <trkpt lat="48.03344" lon="7.04373">
        <ele>1035</ele>
        <time>2019-02-06T11:11:31Z</time>
      </trkpt>
      <trkpt lat="48.03366" lon="7.0441">
        <ele>1025</ele>
        <time>2019-02-06T11:12:00Z</time>
      </trkpt>
      <trkpt lat="48.03407" lon="7.04445">
        <ele>1026</ele>
        <time>2019-02-06T11:12:31Z</time>
      </trkpt>
      <trkpt lat="48.034" lon="7.04454">
        <ele>1022</ele>
        <time>2019-02-06T11:12:35Z</time>
      </trkpt>
      <trkpt lat="48.03401" lon="7.04461">
        <ele>1019</ele>
        <time>2019-02-06T11:12:46Z</time>
      </trkpt>
      <trkpt lat="48.03402" lon="7.04467">
        <ele>1019</ele>
        <time>2019-02-06T11:13:01Z</time>
      </trkpt>
      <trkpt lat="48.034" lon="7.04473">
        <ele>1017</ele>
        <time>2019-02-06T11:13:05Z</time>
      </trkpt>
      <trkpt lat="48.03397" lon="7.04479">
        <ele>1017</ele>
        <time>2019-02-06T11:13:09Z</time>
      </trkpt>
      <trkpt lat="48.03395" lon="7.04493">
        <ele>1013</ele>
        <time>2019-02-06T11:13:18Z</time>
      </trkpt>
      <trkpt lat="48.03395" lon="7.045">
        <ele>1013</ele>
        <time>2019-02-06T11:13:22Z</time>
      </trkpt>
      <trkpt lat="48.03397" lon="7.04506">
        <ele>1012</ele>
        <time>2019-02-06T11:13:28Z</time>
      </trkpt>
      <trkpt lat="48.03399" lon="7.04512">
        <ele>1011</ele>
        <time>2019-02-06T11:13:32Z</time>
      </trkpt>
      <trkpt lat="48.03402" lon="7.04517">
        <ele>1010</ele>
        <time>2019-02-06T11:13:36Z</time>
      </trkpt>
      <trkpt lat="48.03397" lon="7.04516">
        <ele>1002</ele>
        <time>2019-02-06T12:16:26Z</time>
      </trkpt>
      <trkpt lat="48.0339" lon="7.04507">
        <ele>1002</ele>
        <time>2019-02-06T12:17:00Z</time>
      </trkpt>
      <trkpt lat="48.03394" lon="7.04505">
        <ele>1003</ele>
        <time>2019-02-06T12:20:05Z</time>
      </trkpt>
      <trkpt lat="48.03398" lon="7.04503">
        <ele>1004</ele>
        <time>2019-02-06T12:20:20Z</time>
      </trkpt>
      <trkpt lat="48.034" lon="7.04497">
        <ele>1005</ele>
        <time>2019-02-06T12:20:46Z</time>
      </trkpt>
      <trkpt lat="48.03402" lon="7.04491">
        <ele>1007</ele>
        <time>2019-02-06T12:20:52Z</time>
      </trkpt>
      <trkpt lat="48.03405" lon="7.04486">
        <ele>1008</ele>
        <time>2019-02-06T12:20:59Z</time>
      </trkpt>
      <trkpt lat="48.03404" lon="7.04479">
        <ele>1010</ele>
        <time>2019-02-06T12:22:09Z</time>
      </trkpt>
      <trkpt lat="48.03402" lon="7.04474">
        <ele>1010</ele>
        <time>2019-02-06T12:22:15Z</time>
      </trkpt>
      <trkpt lat="48.03399" lon="7.0447">
        <ele>1010</ele>
        <time>2019-02-06T12:22:22Z</time>
      </trkpt>
      <trkpt lat="48.03396" lon="7.04465">
        <ele>1009</ele>
        <time>2019-02-06T12:24:40Z</time>
      </trkpt>
      <trkpt lat="48.03395" lon="7.04459">
        <ele>1010</ele>
        <time>2019-02-06T12:25:29Z</time>
      </trkpt>
      <trkpt lat="48.03392" lon="7.04455">
        <ele>1012</ele>
        <time>2019-02-06T12:25:37Z</time>
      </trkpt>
      <trkpt lat="48.03376" lon="7.04433">
        <ele>1017</ele>
        <time>2019-02-06T12:26:13Z</time>
      </trkpt>
      <trkpt lat="48.03372" lon="7.04429">
        <ele>1018</ele>
        <time>2019-02-06T12:26:21Z</time>
      </trkpt>
      <trkpt lat="48.03352" lon="7.04408">
        <ele>1021</ele>
        <time>2019-02-06T12:26:59Z</time>
      </trkpt>
      <trkpt lat="48.03352" lon="7.04402">
        <ele>1025</ele>
        <time>2019-02-06T12:27:07Z</time>
      </trkpt>
      <trkpt lat="48.03349" lon="7.04398">
        <ele>1023</ele>
        <time>2019-02-06T12:27:19Z</time>
      </trkpt>
      <trkpt lat="48.03347" lon="7.04391">
        <ele>1021</ele>
        <time>2019-02-06T12:27:25Z</time>
      </trkpt>
      <trkpt lat="48.03333" lon="7.04371">
        <ele>1023</ele>
        <time>2019-02-06T12:27:53Z</time>
      </trkpt>
      <trkpt lat="48.03329" lon="7.04365">
        <ele>1025</ele>
        <time>2019-02-06T12:28:03Z</time>
      </trkpt>
      <trkpt lat="48.03322" lon="7.04357">
        <ele>1026</ele>
        <time>2019-02-06T12:28:19Z</time>
      </trkpt>
      <trkpt lat="48.03319" lon="7.04354">
        <ele>1028</ele>
        <time>2019-02-06T12:28:28Z</time>
      </trkpt>
      <trkpt lat="48.03309" lon="7.0433">
        <ele>1030</ele>
        <time>2019-02-06T12:28:58Z</time>
      </trkpt>
      <trkpt lat="48.03301" lon="7.04322">
        <ele>1033</ele>
        <time>2019-02-06T12:29:10Z</time>
      </trkpt>
      <trkpt lat="48.03298" lon="7.04317">
        <ele>1036</ele>
        <time>2019-02-06T12:29:17Z</time>
      </trkpt>
      <trkpt lat="48.03295" lon="7.0431">
        <ele>1037</ele>
        <time>2019-02-06T12:29:28Z</time>
      </trkpt>
      <trkpt lat="48.0329" lon="7.04289">
        <ele>1038</ele>
        <time>2019-02-06T12:29:59Z</time>
      </trkpt>
      <trkpt lat="48.03288" lon="7.04283">
        <ele>1038</ele>
        <time>2019-02-06T12:30:05Z</time>
      </trkpt>
      <trkpt lat="48.03287" lon="7.04277">
        <ele>1037</ele>
        <time>2019-02-06T12:30:12Z</time>
      </trkpt>
      <trkpt lat="48.03285" lon="7.04271">
        <ele>1037</ele>
        <time>2019-02-06T12:30:17Z</time>
      </trkpt>
      <trkpt lat="48.03283" lon="7.04266">
        <ele>1039</ele>
        <time>2019-02-06T12:30:24Z</time>
      </trkpt>
      <trkpt lat="48.0328" lon="7.04261">
        <ele>1040</ele>
        <time>2019-02-06T12:30:31Z</time>
      </trkpt>
      <trkpt lat="48.03277" lon="7.04255">
        <ele>1042</ele>
        <time>2019-02-06T12:30:39Z</time>
      </trkpt>
      <trkpt lat="48.03276" lon="7.04249">
        <ele>1042</ele>
        <time>2019-02-06T12:30:45Z</time>
      </trkpt>
      <trkpt lat="48.03271" lon="7.04237">
        <ele>1045</ele>
        <time>2019-02-06T12:31:03Z</time>
      </trkpt>
      <trkpt lat="48.0327" lon="7.0423">
        <ele>1046</ele>
        <time>2019-02-06T12:31:09Z</time>
      </trkpt>
      <trkpt lat="48.03266" lon="7.04219">
        <ele>1046</ele>
        <time>2019-02-06T12:31:20Z</time>
      </trkpt>
      <trkpt lat="48.03261" lon="7.04206">
        <ele>1046</ele>
        <time>2019-02-06T12:32:03Z</time>
      </trkpt>
      <trkpt lat="48.03257" lon="7.04201">
        <ele>1048</ele>
        <time>2019-02-06T12:32:09Z</time>
      </trkpt>
      <trkpt lat="48.03255" lon="7.04195">
        <ele>1049</ele>
        <time>2019-02-06T12:32:19Z</time>
      </trkpt>
      <trkpt lat="48.03248" lon="7.04187">
        <ele>1052</ele>
        <time>2019-02-06T12:32:28Z</time>
      </trkpt>
      <trkpt lat="48.03245" lon="7.04182">
        <ele>1051</ele>
        <time>2019-02-06T12:32:36Z</time>
      </trkpt>
      <trkpt lat="48.03245" lon="7.04176">
        <ele>1051</ele>
        <time>2019-02-06T12:32:45Z</time>
      </trkpt>
      <trkpt lat="48.03242" lon="7.0417">
        <ele>1052</ele>
        <time>2019-02-06T12:32:53Z</time>
      </trkpt>
      <trkpt lat="48.03236" lon="7.0416">
        <ele>1054</ele>
        <time>2019-02-06T12:33:07Z</time>
      </trkpt>
      <trkpt lat="48.03232" lon="7.04148">
        <ele>1054</ele>
        <time>2019-02-06T12:33:21Z</time>
      </trkpt>
      <trkpt lat="48.03229" lon="7.04144">
        <ele>1054</ele>
        <time>2019-02-06T12:33:26Z</time>
      </trkpt>
      <trkpt lat="48.0322" lon="7.04128">
        <ele>1057</ele>
        <time>2019-02-06T12:33:46Z</time>
      </trkpt>
      <trkpt lat="48.03211" lon="7.04114">
        <ele>1058</ele>
        <time>2019-02-06T12:34:04Z</time>
      </trkpt>
      <trkpt lat="48.03208" lon="7.04109">
        <ele>1059</ele>
        <time>2019-02-06T12:34:10Z</time>
      </trkpt>
      <trkpt lat="48.03204" lon="7.04107">
        <ele>1061</ele>
        <time>2019-02-06T12:34:15Z</time>
      </trkpt>
      <trkpt lat="48.03201" lon="7.04103">
        <ele>1062</ele>
        <time>2019-02-06T12:34:19Z</time>
      </trkpt>
      <trkpt lat="48.03197" lon="7.04098">
        <ele>1062</ele>
        <time>2019-02-06T12:34:24Z</time>
      </trkpt>
      <trkpt lat="48.03194" lon="7.04092">
        <ele>1062</ele>
        <time>2019-02-06T12:34:29Z</time>
      </trkpt>
      <trkpt lat="48.0318" lon="7.04058">
        <ele>1061</ele>
        <time>2019-02-06T12:34:59Z</time>
      </trkpt>
      <trkpt lat="48.03177" lon="7.04052">
        <ele>1062</ele>
        <time>2019-02-06T12:35:07Z</time>
      </trkpt>
      <trkpt lat="48.03173" lon="7.0405">
        <ele>1066</ele>
        <time>2019-02-06T12:35:52Z</time>
      </trkpt>
      <trkpt lat="48.03172" lon="7.04043">
        <ele>1065</ele>
        <time>2019-02-06T12:36:14Z</time>
      </trkpt>
      <trkpt lat="48.03169" lon="7.04037">
        <ele>1063</ele>
        <time>2019-02-06T12:36:19Z</time>
      </trkpt>
      <trkpt lat="48.03165" lon="7.04034">
        <ele>1064</ele>
        <time>2019-02-06T12:36:24Z</time>
      </trkpt>
      <trkpt lat="48.03156" lon="7.03997">
        <ele>1063</ele>
        <time>2019-02-06T12:37:00Z</time>
      </trkpt>
      <trkpt lat="48.03151" lon="7.03992">
        <ele>1067</ele>
        <time>2019-02-06T12:37:04Z</time>
      </trkpt>
      <trkpt lat="48.03141" lon="7.03962">
        <ele>1074</ele>
        <time>2019-02-06T12:37:38Z</time>
      </trkpt>
      <trkpt lat="48.03141" lon="7.03956">
        <ele>1074</ele>
        <time>2019-02-06T12:37:47Z</time>
      </trkpt>
      <trkpt lat="48.03141" lon="7.03949">
        <ele>1075</ele>
        <time>2019-02-06T12:38:10Z</time>
      </trkpt>
      <trkpt lat="48.03137" lon="7.03938">
        <ele>1077</ele>
        <time>2019-02-06T12:38:21Z</time>
      </trkpt>
      <trkpt lat="48.03136" lon="7.03918">
        <ele>1076</ele>
        <time>2019-02-06T12:38:40Z</time>
      </trkpt>
      <trkpt lat="48.03134" lon="7.03912">
        <ele>1077</ele>
        <time>2019-02-06T12:38:46Z</time>
      </trkpt>
      <trkpt lat="48.03132" lon="7.03906">
        <ele>1080</ele>
        <time>2019-02-06T12:38:52Z</time>
      </trkpt>
      <trkpt lat="48.0313" lon="7.03893">
        <ele>1080</ele>
        <time>2019-02-06T12:39:03Z</time>
      </trkpt>
      <trkpt lat="48.03127" lon="7.03879">
        <ele>1081</ele>
        <time>2019-02-06T12:39:15Z</time>
      </trkpt>
      <trkpt lat="48.03125" lon="7.03873">
        <ele>1081</ele>
        <time>2019-02-06T12:39:21Z</time>
      </trkpt>
      <trkpt lat="48.03123" lon="7.03867">
        <ele>1082</ele>
        <time>2019-02-06T12:39:27Z</time>
      </trkpt>
      <trkpt lat="48.03119" lon="7.03862">
        <ele>1084</ele>
        <time>2019-02-06T12:39:33Z</time>
      </trkpt>
      <trkpt lat="48.03117" lon="7.03856">
        <ele>1086</ele>
        <time>2019-02-06T12:39:39Z</time>
      </trkpt>
      <trkpt lat="48.03117" lon="7.03839">
        <ele>1085</ele>
        <time>2019-02-06T12:39:52Z</time>
      </trkpt>
      <trkpt lat="48.03115" lon="7.03829">
        <ele>1084</ele>
        <time>2019-02-06T12:39:59Z</time>
      </trkpt>
      <trkpt lat="48.03111" lon="7.03824">
        <ele>1085</ele>
        <time>2019-02-06T12:40:04Z</time>
      </trkpt>
      <trkpt lat="48.03108" lon="7.03819">
        <ele>1087</ele>
        <time>2019-02-06T12:40:11Z</time>
      </trkpt>
      <trkpt lat="48.03103" lon="7.03815">
        <ele>1091</ele>
        <time>2019-02-06T12:40:16Z</time>
      </trkpt>
      <trkpt lat="48.03101" lon="7.0381">
        <ele>1092</ele>
        <time>2019-02-06T12:40:22Z</time>
      </trkpt>
      <trkpt lat="48.03098" lon="7.03804">
        <ele>1093</ele>
        <time>2019-02-06T12:40:28Z</time>
      </trkpt>
      <trkpt lat="48.03097" lon="7.03796">
        <ele>1091</ele>
        <time>2019-02-06T12:40:37Z</time>
      </trkpt>
      <trkpt lat="48.03091" lon="7.03781">
        <ele>1085</ele>
        <time>2019-02-06T12:40:48Z</time>
      </trkpt>
      <trkpt lat="48.03084" lon="7.03774">
        <ele>1085</ele>
        <time>2019-02-06T12:40:56Z</time>
      </trkpt>
      <trkpt lat="48.0308" lon="7.03768">
        <ele>1087</ele>
        <time>2019-02-06T12:41:02Z</time>
      </trkpt>
      <trkpt lat="48.03075" lon="7.03764">
        <ele>1089</ele>
        <time>2019-02-06T12:41:05Z</time>
      </trkpt>
      <trkpt lat="48.03069" lon="7.03752">
        <ele>1090</ele>
        <time>2019-02-06T12:41:20Z</time>
      </trkpt>
      <trkpt lat="48.03063" lon="7.03751">
        <ele>1092</ele>
        <time>2019-02-06T12:41:27Z</time>
      </trkpt>
      <trkpt lat="48.0304" lon="7.03728">
        <ele>1101</ele>
        <time>2019-02-06T12:42:00Z</time>
      </trkpt>
      <trkpt lat="48.03041" lon="7.03719">
        <ele>1104</ele>
        <time>2019-02-06T12:42:06Z</time>
      </trkpt>
      <trkpt lat="48.03027" lon="7.03694">
        <ele>1100</ele>
        <time>2019-02-06T12:42:33Z</time>
      </trkpt>
      <trkpt lat="48.03025" lon="7.03688">
        <ele>1100</ele>
        <time>2019-02-06T12:42:41Z</time>
      </trkpt>
      <trkpt lat="48.03022" lon="7.03683">
        <ele>1100</ele>
        <time>2019-02-06T12:42:46Z</time>
      </trkpt>
      <trkpt lat="48.03021" lon="7.03676">
        <ele>1101</ele>
        <time>2019-02-06T12:42:51Z</time>
      </trkpt>
      <trkpt lat="48.03022" lon="7.03671">
        <ele>1100</ele>
        <time>2019-02-06T12:42:59Z</time>
      </trkpt>
      <trkpt lat="48.03016" lon="7.03661">
        <ele>1100</ele>
        <time>2019-02-06T12:43:10Z</time>
      </trkpt>
      <trkpt lat="48.03015" lon="7.03655">
        <ele>1101</ele>
        <time>2019-02-06T12:43:16Z</time>
      </trkpt>
      <trkpt lat="48.03009" lon="7.03646">
        <ele>1102</ele>
        <time>2019-02-06T12:43:25Z</time>
      </trkpt>
      <trkpt lat="48.03008" lon="7.03639">
        <ele>1103</ele>
        <time>2019-02-06T12:43:31Z</time>
      </trkpt>
      <trkpt lat="48.03005" lon="7.03636">
        <ele>1103</ele>
        <time>2019-02-06T12:43:34Z</time>
      </trkpt>
      <trkpt lat="48.02998" lon="7.03619">
        <ele>1105</ele>
        <time>2019-02-06T12:43:52Z</time>
      </trkpt>
      <trkpt lat="48.02994" lon="7.0362">
        <ele>1108</ele>
        <time>2019-02-06T12:45:58Z</time>
      </trkpt>
      <trkpt lat="48.02998" lon="7.03612">
        <ele>1108</ele>
        <time>2019-02-06T12:47:00Z</time>
      </trkpt>
      <trkpt lat="48.02994" lon="7.03609">
        <ele>1107</ele>
        <time>2019-02-06T12:47:07Z</time>
      </trkpt>
      <trkpt lat="48.02988" lon="7.03592">
        <ele>1107</ele>
        <time>2019-02-06T12:47:27Z</time>
      </trkpt>
      <trkpt lat="48.02985" lon="7.03579">
        <ele>1109</ele>
        <time>2019-02-06T12:47:43Z</time>
      </trkpt>
      <trkpt lat="48.02982" lon="7.03574">
        <ele>1110</ele>
        <time>2019-02-06T12:48:07Z</time>
      </trkpt>
      <trkpt lat="48.02982" lon="7.03568">
        <ele>1113</ele>
        <time>2019-02-06T12:48:13Z</time>
      </trkpt>
      <trkpt lat="48.0298" lon="7.03563">
        <ele>1114</ele>
        <time>2019-02-06T12:48:22Z</time>
      </trkpt>
      <trkpt lat="48.02971" lon="7.03541">
        <ele>1119</ele>
        <time>2019-02-06T12:48:53Z</time>
      </trkpt>
      <trkpt lat="48.02961" lon="7.03512">
        <ele>1122</ele>
        <time>2019-02-06T12:49:23Z</time>
      </trkpt>
      <trkpt lat="48.02959" lon="7.03506">
        <ele>1122</ele>
        <time>2019-02-06T12:49:31Z</time>
      </trkpt>
      <trkpt lat="48.02958" lon="7.035">
        <ele>1123</ele>
        <time>2019-02-06T12:49:37Z</time>
      </trkpt>
      <trkpt lat="48.02955" lon="7.03494">
        <ele>1124</ele>
        <time>2019-02-06T12:49:44Z</time>
      </trkpt>
      <trkpt lat="48.0295" lon="7.03464">
        <ele>1128</ele>
        <time>2019-02-06T12:50:15Z</time>
      </trkpt>
      <trkpt lat="48.02944" lon="7.03433">
        <ele>1132</ele>
        <time>2019-02-06T12:50:46Z</time>
      </trkpt>
      <trkpt lat="48.02944" lon="7.03426">
        <ele>1133</ele>
        <time>2019-02-06T12:50:53Z</time>
      </trkpt>
      <trkpt lat="48.02942" lon="7.03406">
        <ele>1134</ele>
        <time>2019-02-06T12:51:14Z</time>
      </trkpt>
      <trkpt lat="48.02941" lon="7.034">
        <ele>1135</ele>
        <time>2019-02-06T12:51:21Z</time>
      </trkpt>
      <trkpt lat="48.02937" lon="7.03395">
        <ele>1136</ele>
        <time>2019-02-06T12:51:27Z</time>
      </trkpt>
      <trkpt lat="48.02934" lon="7.03383">
        <ele>1139</ele>
        <time>2019-02-06T12:52:08Z</time>
      </trkpt>
      <trkpt lat="48.02935" lon="7.03376">
        <ele>1139</ele>
        <time>2019-02-06T12:52:14Z</time>
      </trkpt>
      <trkpt lat="48.02936" lon="7.03369">
        <ele>1139</ele>
        <time>2019-02-06T12:52:19Z</time>
      </trkpt>
      <trkpt lat="48.02939" lon="7.03351">
        <ele>1139</ele>
        <time>2019-02-06T12:52:53Z</time>
      </trkpt>
      <trkpt lat="48.0294" lon="7.03344">
        <ele>1138</ele>
        <time>2019-02-06T12:52:58Z</time>
      </trkpt>
      <trkpt lat="48.02946" lon="7.03326">
        <ele>1139</ele>
        <time>2019-02-06T12:53:22Z</time>
      </trkpt>
      <trkpt lat="48.02943" lon="7.03322">
        <ele>1141</ele>
        <time>2019-02-06T12:53:37Z</time>
      </trkpt>
      <trkpt lat="48.02945" lon="7.03316">
        <ele>1142</ele>
        <time>2019-02-06T12:53:47Z</time>
      </trkpt>
      <trkpt lat="48.02947" lon="7.03309">
        <ele>1141</ele>
        <time>2019-02-06T12:58:20Z</time>
      </trkpt>
      <trkpt lat="48.02966" lon="7.03289">
        <ele>1141</ele>
        <time>2019-02-06T13:00:23Z</time>
      </trkpt>
      <trkpt lat="48.0297" lon="7.03282">
        <ele>1141</ele>
        <time>2019-02-06T13:01:07Z</time>
      </trkpt>
      <trkpt lat="48.0298" lon="7.03275">
        <ele>1143</ele>
        <time>2019-02-06T13:01:17Z</time>
      </trkpt>
      <trkpt lat="48.02984" lon="7.03268">
        <ele>1144</ele>
        <time>2019-02-06T13:01:24Z</time>
      </trkpt>
      <trkpt lat="48.0299" lon="7.03262">
        <ele>1147</ele>
        <time>2019-02-06T13:01:32Z</time>
      </trkpt>
      <trkpt lat="48.03003" lon="7.03251">
        <ele>1141</ele>
        <time>2019-02-06T13:02:07Z</time>
      </trkpt>
      <trkpt lat="48.03014" lon="7.03247">
        <ele>1145</ele>
        <time>2019-02-06T13:02:29Z</time>
      </trkpt>
      <trkpt lat="48.03018" lon="7.03244">
        <ele>1145</ele>
        <time>2019-02-06T13:03:48Z</time>
      </trkpt>
      <trkpt lat="48.03027" lon="7.03238">
        <ele>1146</ele>
        <time>2019-02-06T13:04:01Z</time>
      </trkpt>
      <trkpt lat="48.03036" lon="7.03237">
        <ele>1146</ele>
        <time>2019-02-06T13:04:10Z</time>
      </trkpt>
      <trkpt lat="48.03042" lon="7.03228">
        <ele>1152</ele>
        <time>2019-02-06T13:04:26Z</time>
      </trkpt>
      <trkpt lat="48.03051" lon="7.03227">
        <ele>1153</ele>
        <time>2019-02-06T13:04:34Z</time>
      </trkpt>
      <trkpt lat="48.03057" lon="7.03216">
        <ele>1154</ele>
        <time>2019-02-06T13:04:42Z</time>
      </trkpt>
      <trkpt lat="48.03062" lon="7.0322">
        <ele>1153</ele>
        <time>2019-02-06T13:04:47Z</time>
      </trkpt>
      <trkpt lat="48.03075" lon="7.03206">
        <ele>1155</ele>
        <time>2019-02-06T13:05:07Z</time>
      </trkpt>
      <trkpt lat="48.03105" lon="7.03192">
        <ele>1154</ele>
        <time>2019-02-06T13:05:44Z</time>
      </trkpt>
      <trkpt lat="48.03118" lon="7.03179">
        <ele>1157</ele>
        <time>2019-02-06T13:06:03Z</time>
      </trkpt>
      <trkpt lat="48.0313" lon="7.03169">
        <ele>1159</ele>
        <time>2019-02-06T13:06:33Z</time>
      </trkpt>
      <trkpt lat="48.03153" lon="7.03146">
        <ele>1159</ele>
        <time>2019-02-06T13:07:06Z</time>
      </trkpt>
      <trkpt lat="48.03171" lon="7.03142">
        <ele>1149</ele>
        <time>2019-02-06T13:07:24Z</time>
      </trkpt>
      <trkpt lat="48.03178" lon="7.03136">
        <ele>1151</ele>
        <time>2019-02-06T13:07:36Z</time>
      </trkpt>
      <trkpt lat="48.03192" lon="7.0313">
        <ele>1152</ele>
        <time>2019-02-06T13:07:59Z</time>
      </trkpt>
      <trkpt lat="48.03209" lon="7.03122">
        <ele>1153</ele>
        <time>2019-02-06T13:08:21Z</time>
      </trkpt>
      <trkpt lat="48.03227" lon="7.03096">
        <ele>1154</ele>
        <time>2019-02-06T13:08:55Z</time>
      </trkpt>
      <trkpt lat="48.0324" lon="7.03073">
        <ele>1157</ele>
        <time>2019-02-06T13:09:20Z</time>
      </trkpt>
      <trkpt lat="48.03243" lon="7.03067">
        <ele>1159</ele>
        <time>2019-02-06T13:09:26Z</time>
      </trkpt>
      <trkpt lat="48.03246" lon="7.03065">
        <ele>1159</ele>
        <time>2019-02-06T13:09:32Z</time>
      </trkpt>
      <trkpt lat="48.0325" lon="7.03057">
        <ele>1160</ele>
        <time>2019-02-06T13:09:39Z</time>
      </trkpt>
      <trkpt lat="48.03252" lon="7.03051">
        <ele>1161</ele>
        <time>2019-02-06T13:09:44Z</time>
      </trkpt>
      <trkpt lat="48.03253" lon="7.03042">
        <ele>1164</ele>
        <time>2019-02-06T13:09:53Z</time>
      </trkpt>
      <trkpt lat="48.03261" lon="7.03037">
        <ele>1163</ele>
        <time>2019-02-06T13:10:06Z</time>
      </trkpt>
      <trkpt lat="48.03267" lon="7.03019">
        <ele>1160</ele>
        <time>2019-02-06T13:10:25Z</time>
      </trkpt>
      <trkpt lat="48.03269" lon="7.03014">
        <ele>1160</ele>
        <time>2019-02-06T13:10:30Z</time>
      </trkpt>
      <trkpt lat="48.0328" lon="7.02991">
        <ele>1157</ele>
        <time>2019-02-06T13:10:51Z</time>
      </trkpt>
      <trkpt lat="48.03282" lon="7.02982">
        <ele>1159</ele>
        <time>2019-02-06T13:10:57Z</time>
      </trkpt>
      <trkpt lat="48.03286" lon="7.02973">
        <ele>1162</ele>
        <time>2019-02-06T13:11:08Z</time>
      </trkpt>
      <trkpt lat="48.033" lon="7.02957">
        <ele>1166</ele>
        <time>2019-02-06T13:11:28Z</time>
      </trkpt>
      <trkpt lat="48.03306" lon="7.02955">
        <ele>1165</ele>
        <time>2019-02-06T13:11:32Z</time>
      </trkpt>
      <trkpt lat="48.03306" lon="7.02945">
        <ele>1166</ele>
        <time>2019-02-06T13:11:46Z</time>
      </trkpt>
      <trkpt lat="48.03331" lon="7.02933">
        <ele>1166</ele>
        <time>2019-02-06T13:12:18Z</time>
      </trkpt>
      <trkpt lat="48.03321" lon="7.02913">
        <ele>1175</ele>
        <time>2019-02-06T13:12:21Z</time>
      </trkpt>
      <trkpt lat="48.03329" lon="7.02914">
        <ele>1177</ele>
        <time>2019-02-06T13:12:32Z</time>
      </trkpt>
      <trkpt lat="48.0335" lon="7.02882">
        <ele>1173</ele>
        <time>2019-02-06T13:13:05Z</time>
      </trkpt>
      <trkpt lat="48.03356" lon="7.02879">
        <ele>1173</ele>
        <time>2019-02-06T13:13:13Z</time>
      </trkpt>
      <trkpt lat="48.03359" lon="7.02875">
        <ele>1172</ele>
        <time>2019-02-06T13:13:17Z</time>
      </trkpt>
      <trkpt lat="48.03363" lon="7.02875">
        <ele>1170</ele>
        <time>2019-02-06T13:13:21Z</time>
      </trkpt>
      <trkpt lat="48.03366" lon="7.02869">
        <ele>1169</ele>
        <time>2019-02-06T13:13:31Z</time>
      </trkpt>
      <trkpt lat="48.0337" lon="7.02867">
        <ele>1168</ele>
        <time>2019-02-06T13:13:37Z</time>
      </trkpt>
      <trkpt lat="48.03371" lon="7.0286">
        <ele>1171</ele>
        <time>2019-02-06T13:13:46Z</time>
      </trkpt>
      <trkpt lat="48.03386" lon="7.02843">
        <ele>1171</ele>
        <time>2019-02-06T13:14:08Z</time>
      </trkpt>
      <trkpt lat="48.03389" lon="7.02835">
        <ele>1174</ele>
        <time>2019-02-06T13:14:16Z</time>
      </trkpt>
      <trkpt lat="48.03403" lon="7.02827">
        <ele>1174</ele>
        <time>2019-02-06T13:14:36Z</time>
      </trkpt>
      <trkpt lat="48.03409" lon="7.0282">
        <ele>1173</ele>
        <time>2019-02-06T13:14:44Z</time>
      </trkpt>
      <trkpt lat="48.03409" lon="7.02814">
        <ele>1175</ele>
        <time>2019-02-06T13:14:49Z</time>
      </trkpt>
      <trkpt lat="48.03411" lon="7.02807">
        <ele>1177</ele>
        <time>2019-02-06T13:15:04Z</time>
      </trkpt>
      <trkpt lat="48.03418" lon="7.02803">
        <ele>1178</ele>
        <time>2019-02-06T13:15:15Z</time>
      </trkpt>
      <trkpt lat="48.03425" lon="7.02797">
        <ele>1180</ele>
        <time>2019-02-06T13:15:31Z</time>
      </trkpt>
      <trkpt lat="48.0343" lon="7.0279">
        <ele>1183</ele>
        <time>2019-02-06T13:15:38Z</time>
      </trkpt>
      <trkpt lat="48.03434" lon="7.02781">
        <ele>1184</ele>
        <time>2019-02-06T13:15:45Z</time>
      </trkpt>
      <trkpt lat="48.03441" lon="7.02773">
        <ele>1184</ele>
        <time>2019-02-06T13:15:56Z</time>
      </trkpt>
      <trkpt lat="48.03446" lon="7.02766">
        <ele>1185</ele>
        <time>2019-02-06T13:16:08Z</time>
      </trkpt>
      <trkpt lat="48.03452" lon="7.02759">
        <ele>1190</ele>
        <time>2019-02-06T13:16:24Z</time>
      </trkpt>
      <trkpt lat="48.03459" lon="7.0275">
        <ele>1192</ele>
        <time>2019-02-06T13:16:38Z</time>
      </trkpt>
      <trkpt lat="48.03463" lon="7.02749">
        <ele>1191</ele>
        <time>2019-02-06T13:16:43Z</time>
      </trkpt>
      <trkpt lat="48.03467" lon="7.02714">
        <ele>1195</ele>
        <time>2019-02-06T13:17:20Z</time>
      </trkpt>
      <trkpt lat="48.03477" lon="7.02711">
        <ele>1205</ele>
        <time>2019-02-06T13:17:29Z</time>
      </trkpt>
      <trkpt lat="48.03487" lon="7.0271">
        <ele>1203</ele>
        <time>2019-02-06T13:17:40Z</time>
      </trkpt>
      <trkpt lat="48.03502" lon="7.02706">
        <ele>1199</ele>
        <time>2019-02-06T13:18:08Z</time>
      </trkpt>
      <trkpt lat="48.03506" lon="7.027">
        <ele>1198</ele>
        <time>2019-02-06T13:18:26Z</time>
      </trkpt>
      <trkpt lat="48.03513" lon="7.02696">
        <ele>1200</ele>
        <time>2019-02-06T13:18:33Z</time>
      </trkpt>
      <trkpt lat="48.03519" lon="7.02696">
        <ele>1200</ele>
        <time>2019-02-06T13:18:44Z</time>
      </trkpt>
      <trkpt lat="48.03527" lon="7.02692">
        <ele>1199</ele>
        <time>2019-02-06T13:18:59Z</time>
      </trkpt>
      <trkpt lat="48.03533" lon="7.02683">
        <ele>1201</ele>
        <time>2019-02-06T13:19:10Z</time>
      </trkpt>
      <trkpt lat="48.03542" lon="7.02685">
        <ele>1201</ele>
        <time>2019-02-06T13:19:20Z</time>
      </trkpt>
      <trkpt lat="48.03548" lon="7.02678">
        <ele>1202</ele>
        <time>2019-02-06T13:19:37Z</time>
      </trkpt>
      <trkpt lat="48.03552" lon="7.02676">
        <ele>1206</ele>
        <time>2019-02-06T13:19:47Z</time>
      </trkpt>
      <trkpt lat="48.0356" lon="7.02669">
        <ele>1205</ele>
        <time>2019-02-06T13:19:56Z</time>
      </trkpt>
      <trkpt lat="48.03563" lon="7.02664">
        <ele>1206</ele>
        <time>2019-02-06T13:20:05Z</time>
      </trkpt>
      <trkpt lat="48.03577" lon="7.02643">
        <ele>1215</ele>
        <time>2019-02-06T13:20:34Z</time>
      </trkpt>
      <trkpt lat="48.03594" lon="7.02621">
        <ele>1220</ele>
        <time>2019-02-06T13:21:07Z</time>
      </trkpt>
      <trkpt lat="48.03598" lon="7.0262">
        <ele>1222</ele>
        <time>2019-02-06T13:21:14Z</time>
      </trkpt>
      <trkpt lat="48.036" lon="7.02613">
        <ele>1222</ele>
        <time>2019-02-06T13:21:21Z</time>
      </trkpt>
      <trkpt lat="48.03611" lon="7.02601">
        <ele>1224</ele>
        <time>2019-02-06T13:21:40Z</time>
      </trkpt>
      <trkpt lat="48.03614" lon="7.02597">
        <ele>1225</ele>
        <time>2019-02-06T13:21:47Z</time>
      </trkpt>
      <trkpt lat="48.03629" lon="7.02585">
        <ele>1206</ele>
        <time>2019-02-06T13:22:19Z</time>
      </trkpt>
      <trkpt lat="48.03633" lon="7.02581">
        <ele>1212</ele>
        <time>2019-02-06T13:22:20Z</time>
      </trkpt>
      <trkpt lat="48.03632" lon="7.02575">
        <ele>1231</ele>
        <time>2019-02-06T13:25:29Z</time>
      </trkpt>
      <trkpt lat="48.03627" lon="7.02598">
        <ele>1231</ele>
        <time>2019-02-06T13:27:32Z</time>
      </trkpt>
      <trkpt lat="48.03633" lon="7.02586">
        <ele>1239</ele>
        <time>2019-02-06T13:27:46Z</time>
      </trkpt>
      <trkpt lat="48.03634" lon="7.0258">
        <ele>1239</ele>
        <time>2019-02-06T13:28:21Z</time>
      </trkpt>
      <trkpt lat="48.03638" lon="7.02577">
        <ele>1237</ele>
        <time>2019-02-06T13:28:30Z</time>
      </trkpt>
      <trkpt lat="48.03642" lon="7.02574">
        <ele>1233</ele>
        <time>2019-02-06T13:30:35Z</time>
      </trkpt>
      <trkpt lat="48.03643" lon="7.02567">
        <ele>1233</ele>
        <time>2019-02-06T13:30:39Z</time>
      </trkpt>
      <trkpt lat="48.03644" lon="7.02533">
        <ele>1236</ele>
        <time>2019-02-06T13:31:01Z</time>
      </trkpt>
      <trkpt lat="48.03643" lon="7.02521">
        <ele>1238</ele>
        <time>2019-02-06T13:31:13Z</time>
      </trkpt>
      <trkpt lat="48.03642" lon="7.02527">
        <ele>1240</ele>
        <time>2019-02-06T13:33:03Z</time>
      </trkpt>
      <trkpt lat="48.03646" lon="7.02525">
        <ele>1237</ele>
        <time>2019-02-06T13:33:52Z</time>
      </trkpt>
      <trkpt lat="48.0365" lon="7.02529">
        <ele>1237</ele>
        <time>2019-02-06T13:34:14Z</time>
      </trkpt>
      <trkpt lat="48.03654" lon="7.02526">
        <ele>1237</ele>
        <time>2019-02-06T13:35:14Z</time>
      </trkpt>
      <trkpt lat="48.03658" lon="7.02523">
        <ele>1236</ele>
        <time>2019-02-06T13:35:30Z</time>
      </trkpt>
      <trkpt lat="48.03666" lon="7.02516">
        <ele>1242</ele>
        <time>2019-02-06T13:36:10Z</time>
      </trkpt>
      <trkpt lat="48.0367" lon="7.02512">
        <ele>1242</ele>
        <time>2019-02-06T13:36:16Z</time>
      </trkpt>
      <trkpt lat="48.03672" lon="7.02505">
        <ele>1243</ele>
        <time>2019-02-06T13:36:25Z</time>
      </trkpt>
      <trkpt lat="48.03676" lon="7.02494">
        <ele>1245</ele>
        <time>2019-02-06T13:36:41Z</time>
      </trkpt>
      <trkpt lat="48.03689" lon="7.0247">
        <ele>1246</ele>
        <time>2019-02-06T13:37:20Z</time>
      </trkpt>
      <trkpt lat="48.03687" lon="7.02464">
        <ele>1250</ele>
        <time>2019-02-06T13:37:30Z</time>
      </trkpt>
      <trkpt lat="48.03685" lon="7.02459">
        <ele>1251</ele>
        <time>2019-02-06T13:37:47Z</time>
      </trkpt>
      <trkpt lat="48.03682" lon="7.02455">
        <ele>1251</ele>
        <time>2019-02-06T13:37:57Z</time>
      </trkpt>
      <trkpt lat="48.03678" lon="7.02451">
        <ele>1254</ele>
        <time>2019-02-06T13:38:06Z</time>
      </trkpt>
      <trkpt lat="48.03677" lon="7.02445">
        <ele>1254</ele>
        <time>2019-02-06T13:38:19Z</time>
      </trkpt>
      <trkpt lat="48.03678" lon="7.0244">
        <ele>1256</ele>
        <time>2019-02-06T13:38:38Z</time>
      </trkpt>
      <trkpt lat="48.03682" lon="7.02435">
        <ele>1256</ele>
        <time>2019-02-06T13:38:45Z</time>
      </trkpt>
      <trkpt lat="48.03691" lon="7.02419">
        <ele>1258</ele>
        <time>2019-02-06T13:39:06Z</time>
      </trkpt>
      <trkpt lat="48.03697" lon="7.0241">
        <ele>1259</ele>
        <time>2019-02-06T13:39:20Z</time>
      </trkpt>
      <trkpt lat="48.03699" lon="7.02404">
        <ele>1259</ele>
        <time>2019-02-06T13:39:26Z</time>
      </trkpt>
      <trkpt lat="48.03699" lon="7.02397">
        <ele>1261</ele>
        <time>2019-02-06T13:39:42Z</time>
      </trkpt>
      <trkpt lat="48.03696" lon="7.02392">
        <ele>1260</ele>
        <time>2019-02-06T13:39:52Z</time>
      </trkpt>
      <trkpt lat="48.03694" lon="7.02387">
        <ele>1260</ele>
        <time>2019-02-06T13:40:02Z</time>
      </trkpt>
      <trkpt lat="48.0369" lon="7.02383">
        <ele>1260</ele>
        <time>2019-02-06T13:40:12Z</time>
      </trkpt>
      <trkpt lat="48.03688" lon="7.02378">
        <ele>1264</ele>
        <time>2019-02-06T13:40:21Z</time>
      </trkpt>
      <trkpt lat="48.03685" lon="7.02371">
        <ele>1267</ele>
        <time>2019-02-06T13:41:08Z</time>
      </trkpt>
      <trkpt lat="48.03688" lon="7.02366">
        <ele>1269</ele>
        <time>2019-02-06T13:41:17Z</time>
      </trkpt>
      <trkpt lat="48.03698" lon="7.02355">
        <ele>1268</ele>
        <time>2019-02-06T13:41:38Z</time>
      </trkpt>
      <trkpt lat="48.03701" lon="7.0235">
        <ele>1269</ele>
        <time>2019-02-06T13:41:45Z</time>
      </trkpt>
      <trkpt lat="48.0371" lon="7.0233">
        <ele>1269</ele>
        <time>2019-02-06T13:42:20Z</time>
      </trkpt>
      <trkpt lat="48.03713" lon="7.02323">
        <ele>1272</ele>
        <time>2019-02-06T13:42:27Z</time>
      </trkpt>
      <trkpt lat="48.037" lon="7.02308">
        <ele>1275</ele>
        <time>2019-02-06T13:43:04Z</time>
      </trkpt>
      <trkpt lat="48.03694" lon="7.023">
        <ele>1275</ele>
        <time>2019-02-06T13:43:21Z</time>
      </trkpt>
      <trkpt lat="48.03691" lon="7.02295">
        <ele>1277</ele>
        <time>2019-02-06T13:43:31Z</time>
      </trkpt>
      <trkpt lat="48.0369" lon="7.02288">
        <ele>1280</ele>
        <time>2019-02-06T13:43:40Z</time>
      </trkpt>
      <trkpt lat="48.03689" lon="7.02281">
        <ele>1282</ele>
        <time>2019-02-06T13:43:50Z</time>
      </trkpt>
      <trkpt lat="48.03684" lon="7.0227">
        <ele>1282</ele>
        <time>2019-02-06T13:44:06Z</time>
      </trkpt>
      <trkpt lat="48.03683" lon="7.02264">
        <ele>1283</ele>
        <time>2019-02-06T13:44:14Z</time>
      </trkpt>
      <trkpt lat="48.03681" lon="7.02258">
        <ele>1285</ele>
        <time>2019-02-06T13:44:20Z</time>
      </trkpt>
      <trkpt lat="48.0368" lon="7.02244">
        <ele>1288</ele>
        <time>2019-02-06T13:44:35Z</time>
      </trkpt>
      <trkpt lat="48.03684" lon="7.02241">
        <ele>1289</ele>
        <time>2019-02-06T13:48:15Z</time>
      </trkpt>
      <trkpt lat="48.03692" lon="7.02234">
        <ele>1287</ele>
        <time>2019-02-06T13:48:28Z</time>
      </trkpt>
      <trkpt lat="48.03698" lon="7.02224">
        <ele>1290</ele>
        <time>2019-02-06T13:48:40Z</time>
      </trkpt>
      <trkpt lat="48.03703" lon="7.02222">
        <ele>1290</ele>
        <time>2019-02-06T13:48:47Z</time>
      </trkpt>
      <trkpt lat="48.0371" lon="7.02214">
        <ele>1291</ele>
        <time>2019-02-06T13:49:00Z</time>
      </trkpt>
      <trkpt lat="48.03717" lon="7.02206">
        <ele>1294</ele>
        <time>2019-02-06T13:49:13Z</time>
      </trkpt>
      <trkpt lat="48.03723" lon="7.02196">
        <ele>1296</ele>
        <time>2019-02-06T13:49:26Z</time>
      </trkpt>
      <trkpt lat="48.03726" lon="7.02192">
        <ele>1296</ele>
        <time>2019-02-06T13:49:32Z</time>
      </trkpt>
      <trkpt lat="48.03729" lon="7.02188">
        <ele>1294</ele>
        <time>2019-02-06T13:49:38Z</time>
      </trkpt>
      <trkpt lat="48.03735" lon="7.02178">
        <ele>1297</ele>
        <time>2019-02-06T13:49:51Z</time>
      </trkpt>
      <trkpt lat="48.03739" lon="7.02175">
        <ele>1298</ele>
        <time>2019-02-06T13:50:00Z</time>
      </trkpt>
      <trkpt lat="48.03741" lon="7.02168">
        <ele>1298</ele>
        <time>2019-02-06T13:50:06Z</time>
      </trkpt>
      <trkpt lat="48.03749" lon="7.02139">
        <ele>1304</ele>
        <time>2019-02-06T13:50:36Z</time>
      </trkpt>
      <trkpt lat="48.03752" lon="7.02127">
        <ele>1306</ele>
        <time>2019-02-06T13:50:49Z</time>
      </trkpt>
      <trkpt lat="48.03759" lon="7.02101">
        <ele>1309</ele>
        <time>2019-02-06T13:51:18Z</time>
      </trkpt>
      <trkpt lat="48.03764" lon="7.02076">
        <ele>1313</ele>
        <time>2019-02-06T13:51:44Z</time>
      </trkpt>
      <trkpt lat="48.03767" lon="7.0203">
        <ele>1306</ele>
        <time>2019-02-06T13:52:21Z</time>
      </trkpt>
      <trkpt lat="48.03772" lon="7.02031">
        <ele>1313</ele>
        <time>2019-02-06T13:52:24Z</time>
      </trkpt>
      <trkpt lat="48.03776" lon="7.02032">
        <ele>1314</ele>
        <time>2019-02-06T13:52:31Z</time>
      </trkpt>
      <trkpt lat="48.03785" lon="7.0201">
        <ele>1313</ele>
        <time>2019-02-06T13:53:33Z</time>
      </trkpt>
      <trkpt lat="48.03793" lon="7.01993">
        <ele>1315</ele>
        <time>2019-02-06T13:56:08Z</time>
      </trkpt>
      <trkpt lat="48.038" lon="7.01976">
        <ele>1317</ele>
        <time>2019-02-06T13:56:25Z</time>
      </trkpt>
      <trkpt lat="48.03803" lon="7.0197">
        <ele>1318</ele>
        <time>2019-02-06T13:57:27Z</time>
      </trkpt>
      <trkpt lat="48.03805" lon="7.01965">
        <ele>1318</ele>
        <time>2019-02-06T13:57:33Z</time>
      </trkpt>
      <trkpt lat="48.03813" lon="7.01941">
        <ele>1323</ele>
        <time>2019-02-06T13:58:07Z</time>
      </trkpt>
      <trkpt lat="48.03817" lon="7.01938">
        <ele>1323</ele>
        <time>2019-02-06T13:58:49Z</time>
      </trkpt>
      <trkpt lat="48.03821" lon="7.01927">
        <ele>1324</ele>
        <time>2019-02-06T13:59:06Z</time>
      </trkpt>
      <trkpt lat="48.03825" lon="7.01923">
        <ele>1325</ele>
        <time>2019-02-06T13:59:29Z</time>
      </trkpt>
      <trkpt lat="48.03827" lon="7.01917">
        <ele>1325</ele>
        <time>2019-02-06T13:59:36Z</time>
      </trkpt>
      <trkpt lat="48.0383" lon="7.01913">
        <ele>1324</ele>
        <time>2019-02-06T13:59:46Z</time>
      </trkpt>
      <trkpt lat="48.03834" lon="7.01902">
        <ele>1325</ele>
        <time>2019-02-06T13:59:58Z</time>
      </trkpt>
      <trkpt lat="48.03838" lon="7.01891">
        <ele>1328</ele>
        <time>2019-02-06T14:00:12Z</time>
      </trkpt>
      <trkpt lat="48.0384" lon="7.01885">
        <ele>1328</ele>
        <time>2019-02-06T14:00:19Z</time>
      </trkpt>
      <trkpt lat="48.03844" lon="7.0188">
        <ele>1328</ele>
        <time>2019-02-06T14:00:28Z</time>
      </trkpt>
      <trkpt lat="48.03845" lon="7.01875">
        <ele>1328</ele>
        <time>2019-02-06T14:00:34Z</time>
      </trkpt>
      <trkpt lat="48.03846" lon="7.01868">
        <ele>1329</ele>
        <time>2019-02-06T14:00:40Z</time>
      </trkpt>
      <trkpt lat="48.03854" lon="7.01845">
        <ele>1332</ele>
        <time>2019-02-06T14:01:08Z</time>
      </trkpt>
      <trkpt lat="48.03849" lon="7.01855">
        <ele>1331</ele>
        <time>2019-02-06T14:01:38Z</time>
      </trkpt>
      <trkpt lat="48.03852" lon="7.01851">
        <ele>1330</ele>
        <time>2019-02-06T14:04:45Z</time>
      </trkpt>
      <trkpt lat="48.03867" lon="7.01817">
        <ele>1333</ele>
        <time>2019-02-06T14:05:19Z</time>
      </trkpt>
      <trkpt lat="48.03873" lon="7.01799">
        <ele>1335</ele>
        <time>2019-02-06T14:05:36Z</time>
      </trkpt>
      <trkpt lat="48.03874" lon="7.01792">
        <ele>1336</ele>
        <time>2019-02-06T14:05:41Z</time>
      </trkpt>
      <trkpt lat="48.03886" lon="7.01758">
        <ele>1338</ele>
        <time>2019-02-06T14:06:15Z</time>
      </trkpt>
      <trkpt lat="48.03894" lon="7.01735">
        <ele>1338</ele>
        <time>2019-02-06T14:06:48Z</time>
      </trkpt>
      <trkpt lat="48.03906" lon="7.01713">
        <ele>1337</ele>
        <time>2019-02-06T14:07:20Z</time>
      </trkpt>
      <trkpt lat="48.03904" lon="7.01692">
        <ele>1338</ele>
        <time>2019-02-06T14:07:24Z</time>
      </trkpt>
      <trkpt lat="48.03918" lon="7.0165">
        <ele>1342</ele>
        <time>2019-02-06T14:07:58Z</time>
      </trkpt>
      <trkpt lat="48.03927" lon="7.01619">
        <ele>1341</ele>
        <time>2019-02-06T14:08:27Z</time>
      </trkpt>
      <trkpt lat="48.03933" lon="7.0161">
        <ele>1339</ele>
        <time>2019-02-06T14:08:38Z</time>
      </trkpt>
      <trkpt lat="48.03936" lon="7.01604">
        <ele>1340</ele>
        <time>2019-02-06T14:08:43Z</time>
      </trkpt>
      <trkpt lat="48.03941" lon="7.01585">
        <ele>1340</ele>
        <time>2019-02-06T14:09:01Z</time>
      </trkpt>
      <trkpt lat="48.03944" lon="7.01572">
        <ele>1340</ele>
        <time>2019-02-06T14:09:11Z</time>
      </trkpt>
      <trkpt lat="48.0395" lon="7.0154">
        <ele>1340</ele>
        <time>2019-02-06T14:09:37Z</time>
      </trkpt>
      <trkpt lat="48.03957" lon="7.01522">
        <ele>1339</ele>
        <time>2019-02-06T14:09:54Z</time>
      </trkpt>
      <trkpt lat="48.03974" lon="7.01489">
        <ele>1341</ele>
        <time>2019-02-06T14:10:24Z</time>
      </trkpt>
      <trkpt lat="48.03978" lon="7.01484">
        <ele>1341</ele>
        <time>2019-02-06T14:10:30Z</time>
      </trkpt>
      <trkpt lat="48.03981" lon="7.01478">
        <ele>1337</ele>
        <time>2019-02-06T14:10:47Z</time>
      </trkpt>
      <trkpt lat="48.03995" lon="7.0146">
        <ele>1336</ele>
        <time>2019-02-06T14:11:07Z</time>
      </trkpt>
      <trkpt lat="48.03998" lon="7.01455">
        <ele>1336</ele>
        <time>2019-02-06T14:11:13Z</time>
      </trkpt>
      <trkpt lat="48.04008" lon="7.0144">
        <ele>1333</ele>
        <time>2019-02-06T14:11:44Z</time>
      </trkpt>
      <trkpt lat="48.04011" lon="7.01436">
        <ele>1333</ele>
        <time>2019-02-06T14:11:49Z</time>
      </trkpt>
      <trkpt lat="48.04028" lon="7.01393">
        <ele>1332</ele>
        <time>2019-02-06T14:12:22Z</time>
      </trkpt>
      <trkpt lat="48.04033" lon="7.01399">
        <ele>1332</ele>
        <time>2019-02-06T14:12:23Z</time>
      </trkpt>
      <trkpt lat="48.04033" lon="7.01393">
        <ele>1331</ele>
        <time>2019-02-06T14:12:26Z</time>
      </trkpt>
      <trkpt lat="48.04037" lon="7.0139">
        <ele>1329</ele>
        <time>2019-02-06T14:12:32Z</time>
      </trkpt>
      <trkpt lat="48.04038" lon="7.01383">
        <ele>1328</ele>
        <time>2019-02-06T14:12:37Z</time>
      </trkpt>
      <trkpt lat="48.04042" lon="7.01371">
        <ele>1327</ele>
        <time>2019-02-06T14:12:46Z</time>
      </trkpt>
      <trkpt lat="48.04042" lon="7.01371">
        <ele>1326</ele>
        <time>2019-02-06T14:13:44Z</time>
      </trkpt>
      <trkpt lat="48.04038" lon="7.01375">
        <ele>1326</ele>
        <time>2019-02-06T14:13:49Z</time>
      </trkpt>
      <trkpt lat="48.04034" lon="7.01387">
        <ele>1328</ele>
        <time>2019-02-06T14:13:59Z</time>
      </trkpt>
      <trkpt lat="48.04037" lon="7.01382">
        <ele>1330</ele>
        <time>2019-02-06T14:15:15Z</time>
      </trkpt>
      <trkpt lat="48.04044" lon="7.01365">
        <ele>1328</ele>
        <time>2019-02-06T14:15:29Z</time>
      </trkpt>
      <trkpt lat="48.04048" lon="7.01354">
        <ele>1327</ele>
        <time>2019-02-06T14:15:40Z</time>
      </trkpt>
      <trkpt lat="48.04051" lon="7.01348">
        <ele>1327</ele>
        <time>2019-02-06T14:15:45Z</time>
      </trkpt>
      <trkpt lat="48.04053" lon="7.01343">
        <ele>1327</ele>
        <time>2019-02-06T14:15:50Z</time>
      </trkpt>
      <trkpt lat="48.04055" lon="7.01336">
        <ele>1327</ele>
        <time>2019-02-06T14:15:59Z</time>
      </trkpt>
      <trkpt lat="48.0406" lon="7.01325">
        <ele>1325</ele>
        <time>2019-02-06T14:16:09Z</time>
      </trkpt>
      <trkpt lat="48.04064" lon="7.01322">
        <ele>1324</ele>
        <time>2019-02-06T14:16:14Z</time>
      </trkpt>
      <trkpt lat="48.04068" lon="7.01322">
        <ele>1323</ele>
        <time>2019-02-06T14:16:18Z</time>
      </trkpt>
      <trkpt lat="48.04072" lon="7.01317">
        <ele>1323</ele>
        <time>2019-02-06T14:16:23Z</time>
      </trkpt>
      <trkpt lat="48.0408" lon="7.01299">
        <ele>1322</ele>
        <time>2019-02-06T14:16:38Z</time>
      </trkpt>
      <trkpt lat="48.04083" lon="7.01294">
        <ele>1321</ele>
        <time>2019-02-06T14:16:43Z</time>
      </trkpt>
      <trkpt lat="48.04084" lon="7.01286">
        <ele>1321</ele>
        <time>2019-02-06T14:16:48Z</time>
      </trkpt>
      <trkpt lat="48.04087" lon="7.01281">
        <ele>1318</ele>
        <time>2019-02-06T14:16:56Z</time>
      </trkpt>
      <trkpt lat="48.04089" lon="7.01276">
        <ele>1318</ele>
        <time>2019-02-06T14:17:02Z</time>
      </trkpt>
      <trkpt lat="48.04093" lon="7.01272">
        <ele>1318</ele>
        <time>2019-02-06T14:17:08Z</time>
      </trkpt>
      <trkpt lat="48.04095" lon="7.01266">
        <ele>1316</ele>
        <time>2019-02-06T14:17:22Z</time>
      </trkpt>
      <trkpt lat="48.04105" lon="7.01226">
        <ele>1314</ele>
        <time>2019-02-06T14:17:52Z</time>
      </trkpt>
      <trkpt lat="48.04108" lon="7.01213">
        <ele>1314</ele>
        <time>2019-02-06T14:18:02Z</time>
      </trkpt>
      <trkpt lat="48.04111" lon="7.01207">
        <ele>1314</ele>
        <time>2019-02-06T14:18:07Z</time>
      </trkpt>
      <trkpt lat="48.04114" lon="7.01202">
        <ele>1313</ele>
        <time>2019-02-06T14:18:12Z</time>
      </trkpt>
      <trkpt lat="48.04115" lon="7.01195">
        <ele>1312</ele>
        <time>2019-02-06T14:18:17Z</time>
      </trkpt>
      <trkpt lat="48.04117" lon="7.0119">
        <ele>1311</ele>
        <time>2019-02-06T14:18:21Z</time>
      </trkpt>
      <trkpt lat="48.04129" lon="7.01162">
        <ele>1307</ele>
        <time>2019-02-06T14:18:48Z</time>
      </trkpt>
      <trkpt lat="48.0413" lon="7.01156">
        <ele>1306</ele>
        <time>2019-02-06T14:18:53Z</time>
      </trkpt>
      <trkpt lat="48.04132" lon="7.0115">
        <ele>1305</ele>
        <time>2019-02-06T14:18:58Z</time>
      </trkpt>
      <trkpt lat="48.04134" lon="7.01143">
        <ele>1300</ele>
        <time>2019-02-06T14:19:07Z</time>
      </trkpt>
      <trkpt lat="48.04135" lon="7.01137">
        <ele>1299</ele>
        <time>2019-02-06T14:19:12Z</time>
      </trkpt>
      <trkpt lat="48.04137" lon="7.01131">
        <ele>1297</ele>
        <time>2019-02-06T14:19:18Z</time>
      </trkpt>
      <trkpt lat="48.04137" lon="7.01123">
        <ele>1297</ele>
        <time>2019-02-06T14:19:23Z</time>
      </trkpt>
      <trkpt lat="48.04139" lon="7.01116">
        <ele>1296</ele>
        <time>2019-02-06T14:19:28Z</time>
      </trkpt>
      <trkpt lat="48.04143" lon="7.0109">
        <ele>1294</ele>
        <time>2019-02-06T14:19:48Z</time>
      </trkpt>
      <trkpt lat="48.04156" lon="7.0109">
        <ele>1294</ele>
        <time>2019-02-06T14:20:06Z</time>
      </trkpt>
      <trkpt lat="48.04163" lon="7.01101">
        <ele>1290</ele>
        <time>2019-02-06T14:20:19Z</time>
      </trkpt>
      <trkpt lat="48.04164" lon="7.01095">
        <ele>1291</ele>
        <time>2019-02-06T14:20:41Z</time>
      </trkpt>
      <trkpt lat="48.04162" lon="7.0109">
        <ele>1290</ele>
        <time>2019-02-06T14:20:46Z</time>
      </trkpt>
      <trkpt lat="48.04158" lon="7.01086">
        <ele>1290</ele>
        <time>2019-02-06T14:20:51Z</time>
      </trkpt>
      <trkpt lat="48.04153" lon="7.01085">
        <ele>1291</ele>
        <time>2019-02-06T14:20:56Z</time>
      </trkpt>
      <trkpt lat="48.04149" lon="7.01084">
        <ele>1291</ele>
        <time>2019-02-06T14:21:00Z</time>
      </trkpt>
      <trkpt lat="48.04141" lon="7.01085">
        <ele>1290</ele>
        <time>2019-02-06T14:21:12Z</time>
      </trkpt>
      <trkpt lat="48.04152" lon="7.01038">
        <ele>1300</ele>
        <time>2019-02-06T14:32:25Z</time>
      </trkpt>
      <trkpt lat="48.04158" lon="7.01055">
        <ele>1298</ele>
        <time>2019-02-06T14:32:29Z</time>
      </trkpt>
      <trkpt lat="48.04179" lon="7.01042">
        <ele>1295</ele>
        <time>2019-02-06T14:33:03Z</time>
      </trkpt>
      <trkpt lat="48.04183" lon="7.01039">
        <ele>1296</ele>
        <time>2019-02-06T14:33:19Z</time>
      </trkpt>
      <trkpt lat="48.04188" lon="7.01039">
        <ele>1296</ele>
        <time>2019-02-06T14:33:25Z</time>
      </trkpt>
      <trkpt lat="48.04192" lon="7.01035">
        <ele>1298</ele>
        <time>2019-02-06T14:33:31Z</time>
      </trkpt>
      <trkpt lat="48.04216" lon="7.01018">
        <ele>1302</ele>
        <time>2019-02-06T14:34:06Z</time>
      </trkpt>
      <trkpt lat="48.04227" lon="7.01009">
        <ele>1304</ele>
        <time>2019-02-06T14:34:23Z</time>
      </trkpt>
      <trkpt lat="48.0423" lon="7.01003">
        <ele>1304</ele>
        <time>2019-02-06T14:34:29Z</time>
      </trkpt>
      <trkpt lat="48.04255" lon="7.00981">
        <ele>1302</ele>
        <time>2019-02-06T14:34:59Z</time>
      </trkpt>
      <trkpt lat="48.0426" lon="7.00979">
        <ele>1302</ele>
        <time>2019-02-06T14:35:04Z</time>
      </trkpt>
      <trkpt lat="48.04276" lon="7.00966">
        <ele>1303</ele>
        <time>2019-02-06T14:35:24Z</time>
      </trkpt>
      <trkpt lat="48.04281" lon="7.00965">
        <ele>1304</ele>
        <time>2019-02-06T14:35:33Z</time>
      </trkpt>
      <trkpt lat="48.04289" lon="7.00971">
        <ele>1305</ele>
        <time>2019-02-06T14:35:44Z</time>
      </trkpt>
      <trkpt lat="48.04292" lon="7.00976">
        <ele>1305</ele>
        <time>2019-02-06T14:35:49Z</time>
      </trkpt>
      <trkpt lat="48.04301" lon="7.00984">
        <ele>1306</ele>
        <time>2019-02-06T14:36:01Z</time>
      </trkpt>
      <trkpt lat="48.04304" lon="7.00989">
        <ele>1306</ele>
        <time>2019-02-06T14:36:05Z</time>
      </trkpt>
      <trkpt lat="48.0433" lon="7.01023">
        <ele>1306</ele>
        <time>2019-02-06T14:36:38Z</time>
      </trkpt>
      <trkpt lat="48.04334" lon="7.01027">
        <ele>1306</ele>
        <time>2019-02-06T14:36:42Z</time>
      </trkpt>
      <trkpt lat="48.04341" lon="7.01036">
        <ele>1304</ele>
        <time>2019-02-06T14:36:50Z</time>
      </trkpt>
      <trkpt lat="48.04369" lon="7.01068">
        <ele>1300</ele>
        <time>2019-02-06T14:37:25Z</time>
      </trkpt>
      <trkpt lat="48.04383" lon="7.0109">
        <ele>1300</ele>
        <time>2019-02-06T14:37:45Z</time>
      </trkpt>
      <trkpt lat="48.04391" lon="7.01093">
        <ele>1301</ele>
        <time>2019-02-06T14:37:50Z</time>
      </trkpt>
      <trkpt lat="48.044" lon="7.01096">
        <ele>1304</ele>
        <time>2019-02-06T14:37:57Z</time>
      </trkpt>
      <trkpt lat="48.04399" lon="7.01104">
        <ele>1302</ele>
        <time>2019-02-06T14:38:05Z</time>
      </trkpt>
      <trkpt lat="48.04403" lon="7.0111">
        <ele>1299</ele>
        <time>2019-02-06T14:38:10Z</time>
      </trkpt>
      <trkpt lat="48.04406" lon="7.01114">
        <ele>1298</ele>
        <time>2019-02-06T14:38:14Z</time>
      </trkpt>
      <trkpt lat="48.04428" lon="7.01129">
        <ele>1299</ele>
        <time>2019-02-06T14:38:34Z</time>
      </trkpt>
      <trkpt lat="48.04457" lon="7.01151">
        <ele>1299</ele>
        <time>2019-02-06T14:39:05Z</time>
      </trkpt>
      <trkpt lat="48.04486" lon="7.0117">
        <ele>1294</ele>
        <time>2019-02-06T14:39:36Z</time>
      </trkpt>
      <trkpt lat="48.04512" lon="7.01185">
        <ele>1291</ele>
        <time>2019-02-06T14:40:02Z</time>
      </trkpt>
      <trkpt lat="48.04516" lon="7.01189">
        <ele>1291</ele>
        <time>2019-02-06T14:40:06Z</time>
      </trkpt>
      <trkpt lat="48.04524" lon="7.01191">
        <ele>1291</ele>
        <time>2019-02-06T14:40:14Z</time>
      </trkpt>
      <trkpt lat="48.04534" lon="7.01193">
        <ele>1291</ele>
        <time>2019-02-06T14:40:22Z</time>
      </trkpt>
      <trkpt lat="48.04538" lon="7.01193">
        <ele>1290</ele>
        <time>2019-02-06T14:40:26Z</time>
      </trkpt>
      <trkpt lat="48.04543" lon="7.01194">
        <ele>1290</ele>
        <time>2019-02-06T14:40:31Z</time>
      </trkpt>
      <trkpt lat="48.04558" lon="7.01197">
        <ele>1289</ele>
        <time>2019-02-06T14:40:46Z</time>
      </trkpt>
      <trkpt lat="48.04568" lon="7.012">
        <ele>1288</ele>
        <time>2019-02-06T14:40:54Z</time>
      </trkpt>
      <trkpt lat="48.04578" lon="7.01204">
        <ele>1289</ele>
        <time>2019-02-06T14:41:03Z</time>
      </trkpt>
      <trkpt lat="48.04587" lon="7.01209">
        <ele>1290</ele>
        <time>2019-02-06T14:41:13Z</time>
      </trkpt>
      <trkpt lat="48.04592" lon="7.01211">
        <ele>1290</ele>
        <time>2019-02-06T14:41:19Z</time>
      </trkpt>
      <trkpt lat="48.04614" lon="7.01218">
        <ele>1286</ele>
        <time>2019-02-06T14:41:42Z</time>
      </trkpt>
      <trkpt lat="48.04622" lon="7.01228">
        <ele>1286</ele>
        <time>2019-02-06T14:41:51Z</time>
      </trkpt>
      <trkpt lat="48.04645" lon="7.01264">
        <ele>1280</ele>
        <time>2019-02-06T14:42:25Z</time>
      </trkpt>
      <trkpt lat="48.04656" lon="7.01277">
        <ele>1279</ele>
        <time>2019-02-06T14:42:37Z</time>
      </trkpt>
      <trkpt lat="48.04678" lon="7.01303">
        <ele>1279</ele>
        <time>2019-02-06T14:43:03Z</time>
      </trkpt>
      <trkpt lat="48.04692" lon="7.01319">
        <ele>1278</ele>
        <time>2019-02-06T14:43:19Z</time>
      </trkpt>
      <trkpt lat="48.04703" lon="7.01332">
        <ele>1273</ele>
        <time>2019-02-06T14:43:36Z</time>
      </trkpt>
      <trkpt lat="48.04706" lon="7.01336">
        <ele>1275</ele>
        <time>2019-02-06T14:47:42Z</time>
      </trkpt>
      <trkpt lat="48.04709" lon="7.01341">
        <ele>1275</ele>
        <time>2019-02-06T14:52:41Z</time>
      </trkpt>
      <trkpt lat="48.04712" lon="7.01345">
        <ele>1275</ele>
        <time>2019-02-06T14:52:47Z</time>
      </trkpt>
      <trkpt lat="48.04722" lon="7.01361">
        <ele>1275</ele>
        <time>2019-02-06T14:53:05Z</time>
      </trkpt>
      <trkpt lat="48.04729" lon="7.01368">
        <ele>1275</ele>
        <time>2019-02-06T14:53:14Z</time>
      </trkpt>
      <trkpt lat="48.04736" lon="7.01375">
        <ele>1275</ele>
        <time>2019-02-06T14:53:24Z</time>
      </trkpt>
      <trkpt lat="48.04744" lon="7.01385">
        <ele>1274</ele>
        <time>2019-02-06T14:53:35Z</time>
      </trkpt>
      <trkpt lat="48.04755" lon="7.01395">
        <ele>1271</ele>
        <time>2019-02-06T14:53:49Z</time>
      </trkpt>
      <trkpt lat="48.04773" lon="7.01407">
        <ele>1269</ele>
        <time>2019-02-06T14:54:10Z</time>
      </trkpt>
      <trkpt lat="48.04781" lon="7.01413">
        <ele>1268</ele>
        <time>2019-02-06T14:54:20Z</time>
      </trkpt>
      <trkpt lat="48.04806" lon="7.01429">
        <ele>1268</ele>
        <time>2019-02-06T14:54:59Z</time>
      </trkpt>
      <trkpt lat="48.04818" lon="7.01436">
        <ele>1267</ele>
        <time>2019-02-06T14:55:14Z</time>
      </trkpt>
      <trkpt lat="48.04823" lon="7.0144">
        <ele>1267</ele>
        <time>2019-02-06T14:55:19Z</time>
      </trkpt>
      <trkpt lat="48.04833" lon="7.01453">
        <ele>1264</ele>
        <time>2019-02-06T14:55:33Z</time>
      </trkpt>
      <trkpt lat="48.04841" lon="7.0146">
        <ele>1263</ele>
        <time>2019-02-06T14:55:51Z</time>
      </trkpt>
      <trkpt lat="48.04854" lon="7.01464">
        <ele>1262</ele>
        <time>2019-02-06T14:56:10Z</time>
      </trkpt>
      <trkpt lat="48.04865" lon="7.01475">
        <ele>1261</ele>
        <time>2019-02-06T14:56:25Z</time>
      </trkpt>
      <trkpt lat="48.0487" lon="7.01475">
        <ele>1261</ele>
        <time>2019-02-06T14:56:29Z</time>
      </trkpt>
      <trkpt lat="48.04878" lon="7.01479">
        <ele>1261</ele>
        <time>2019-02-06T14:56:37Z</time>
      </trkpt>
      <trkpt lat="48.04895" lon="7.0149">
        <ele>1256</ele>
        <time>2019-02-06T14:57:30Z</time>
      </trkpt>
      <trkpt lat="48.04903" lon="7.01496">
        <ele>1255</ele>
        <time>2019-02-06T14:57:41Z</time>
      </trkpt>
      <trkpt lat="48.04932" lon="7.01516">
        <ele>1254</ele>
        <time>2019-02-06T14:58:11Z</time>
      </trkpt>
      <trkpt lat="48.04958" lon="7.01532">
        <ele>1249</ele>
        <time>2019-02-06T14:58:44Z</time>
      </trkpt>
      <trkpt lat="48.04982" lon="7.01546">
        <ele>1245</ele>
        <time>2019-02-06T14:59:07Z</time>
      </trkpt>
      <trkpt lat="48.05004" lon="7.0155">
        <ele>1243</ele>
        <time>2019-02-06T14:59:30Z</time>
      </trkpt>
      <trkpt lat="48.0501" lon="7.01555">
        <ele>1244</ele>
        <time>2019-02-06T14:59:37Z</time>
      </trkpt>
      <trkpt lat="48.05015" lon="7.01556">
        <ele>1246</ele>
        <time>2019-02-06T14:59:42Z</time>
      </trkpt>
      <trkpt lat="48.05024" lon="7.0156">
        <ele>1245</ele>
        <time>2019-02-06T14:59:50Z</time>
      </trkpt>
      <trkpt lat="48.05029" lon="7.01562">
        <ele>1244</ele>
        <time>2019-02-06T14:59:56Z</time>
      </trkpt>
      <trkpt lat="48.05032" lon="7.01567">
        <ele>1244</ele>
        <time>2019-02-06T15:00:02Z</time>
      </trkpt>
      <trkpt lat="48.05037" lon="7.01564">
        <ele>1244</ele>
        <time>2019-02-06T15:00:07Z</time>
      </trkpt>
      <trkpt lat="48.05042" lon="7.01565">
        <ele>1244</ele>
        <time>2019-02-06T15:00:12Z</time>
      </trkpt>
      <trkpt lat="48.05058" lon="7.01574">
        <ele>1243</ele>
        <time>2019-02-06T15:00:33Z</time>
      </trkpt>
      <trkpt lat="48.05065" lon="7.01575">
        <ele>1243</ele>
        <time>2019-02-06T15:00:41Z</time>
      </trkpt>
      <trkpt lat="48.0507" lon="7.0158">
        <ele>1241</ele>
        <time>2019-02-06T15:00:47Z</time>
      </trkpt>
      <trkpt lat="48.05103" lon="7.01574">
        <ele>1235</ele>
        <time>2019-02-06T15:01:17Z</time>
      </trkpt>
      <trkpt lat="48.05106" lon="7.01579">
        <ele>1234</ele>
        <time>2019-02-06T15:01:23Z</time>
      </trkpt>
      <trkpt lat="48.05139" lon="7.01587">
        <ele>1236</ele>
        <time>2019-02-06T15:01:55Z</time>
      </trkpt>
      <trkpt lat="48.05192" lon="7.01611">
        <ele>1246</ele>
        <time>2019-02-06T15:02:28Z</time>
      </trkpt>
      <trkpt lat="48.05185" lon="7.01609">
        <ele>1242</ele>
        <time>2019-02-06T15:02:31Z</time>
      </trkpt>
      <trkpt lat="48.05189" lon="7.01589">
        <ele>1232</ele>
        <time>2019-02-06T15:02:46Z</time>
      </trkpt>
      <trkpt lat="48.0519" lon="7.01576">
        <ele>1231</ele>
        <time>2019-02-06T15:02:55Z</time>
      </trkpt>
      <trkpt lat="48.0519" lon="7.01526">
        <ele>1232</ele>
        <time>2019-02-06T15:03:25Z</time>
      </trkpt>
      <trkpt lat="48.05189" lon="7.01519">
        <ele>1233</ele>
        <time>2019-02-06T15:03:29Z</time>
      </trkpt>
      <trkpt lat="48.05191" lon="7.01507">
        <ele>1232</ele>
        <time>2019-02-06T15:03:37Z</time>
      </trkpt>
      <trkpt lat="48.05193" lon="7.01493">
        <ele>1230</ele>
        <time>2019-02-06T15:03:49Z</time>
      </trkpt>
      <trkpt lat="48.05198" lon="7.01482">
        <ele>1225</ele>
        <time>2019-02-06T15:04:00Z</time>
      </trkpt>
      <trkpt lat="48.05199" lon="7.01476">
        <ele>1226</ele>
        <time>2019-02-06T15:04:11Z</time>
      </trkpt>
      <trkpt lat="48.05196" lon="7.01471">
        <ele>1226</ele>
        <time>2019-02-06T15:04:18Z</time>
      </trkpt>
      <trkpt lat="48.05195" lon="7.01465">
        <ele>1225</ele>
        <time>2019-02-06T15:04:37Z</time>
      </trkpt>
      <trkpt lat="48.05196" lon="7.01459">
        <ele>1225</ele>
        <time>2019-02-06T15:04:43Z</time>
      </trkpt>
      <trkpt lat="48.052" lon="7.01458">
        <ele>1223</ele>
        <time>2019-02-06T15:04:49Z</time>
      </trkpt>
      <trkpt lat="48.05204" lon="7.0146">
        <ele>1222</ele>
        <time>2019-02-06T15:04:53Z</time>
      </trkpt>
      <trkpt lat="48.05214" lon="7.0146">
        <ele>1223</ele>
        <time>2019-02-06T15:05:11Z</time>
      </trkpt>
      <trkpt lat="48.05223" lon="7.01459">
        <ele>1225</ele>
        <time>2019-02-06T15:05:20Z</time>
      </trkpt>
      <trkpt lat="48.05232" lon="7.01455">
        <ele>1225</ele>
        <time>2019-02-06T15:05:30Z</time>
      </trkpt>
      <trkpt lat="48.05228" lon="7.01455">
        <ele>1226</ele>
        <time>2019-02-06T15:05:51Z</time>
      </trkpt>
      <trkpt lat="48.05224" lon="7.01444">
        <ele>1226</ele>
        <time>2019-02-06T15:06:25Z</time>
      </trkpt>
    </trkseg>
  </trk>
</gpx>